<?xml version="1.0" encoding="UTF-8" standalone="no" ?>
<gpx xmlns="http://www.topografix.com/GPX/1/1" xmlns:xsi="http://www.w3.org/2001/XMLSchema-instance" xsi:schemaLocation="http://www.topografix.com/GPX/1/1 http://www.topografix.com/GPX/1/1/gpx.xsd" version="1.1" creator="VisuGPX - https://www.visugpx.com">
  <metadata>
    <name>Cyclo-Patrouille-Bruges-04-2025</name>
  </metadata>
  <trk>
    <name><![CDATA[Cyclo-Patrouille-Bruges-04-2025]]></name>
    <trkseg>
      <trkpt lat="44.87689" lon="-0.62184">
        <ele>26.57</ele>
        <time>2025-04-16T07:22:15Z</time>
      </trkpt>
      <trkpt lat="44.87691" lon="-0.62183">
        <ele>27.05</ele>
        <time>2025-04-16T07:22:16Z</time>
      </trkpt>
      <trkpt lat="44.87693" lon="-0.62181">
        <ele>27.05</ele>
        <time>2025-04-16T07:22:29Z</time>
      </trkpt>
      <trkpt lat="44.87694" lon="-0.62181">
        <ele>27.05</ele>
        <time>2025-04-16T07:22:47Z</time>
      </trkpt>
      <trkpt lat="44.87694" lon="-0.62182">
        <ele>27.05</ele>
        <time>2025-04-16T07:23:02Z</time>
      </trkpt>
      <trkpt lat="44.8769" lon="-0.62185">
        <ele>27.05</ele>
        <time>2025-04-16T07:23:32Z</time>
      </trkpt>
      <trkpt lat="44.87693" lon="-0.62189">
        <ele>27.05</ele>
        <time>2025-04-16T07:24:12Z</time>
      </trkpt>
      <trkpt lat="44.8769" lon="-0.62186">
        <ele>26.57</ele>
        <time>2025-04-16T07:24:46Z</time>
      </trkpt>
      <trkpt lat="44.87691" lon="-0.62193">
        <ele>26.57</ele>
        <time>2025-04-16T07:25:20Z</time>
      </trkpt>
      <trkpt lat="44.8769" lon="-0.62193">
        <ele>26.57</ele>
        <time>2025-04-16T07:25:52Z</time>
      </trkpt>
      <trkpt lat="44.87691" lon="-0.62192">
        <ele>26.57</ele>
        <time>2025-04-16T07:26:11Z</time>
      </trkpt>
      <trkpt lat="44.87692" lon="-0.62193">
        <ele>27.05</ele>
        <time>2025-04-16T07:26:34Z</time>
      </trkpt>
      <trkpt lat="44.87691" lon="-0.62192">
        <ele>27.53</ele>
        <time>2025-04-16T07:27:13Z</time>
      </trkpt>
      <trkpt lat="44.87691" lon="-0.62197">
        <ele>27.05</ele>
        <time>2025-04-16T07:27:36Z</time>
      </trkpt>
      <trkpt lat="44.87691" lon="-0.62183">
        <ele>26.57</ele>
        <time>2025-04-16T07:28:15Z</time>
      </trkpt>
      <trkpt lat="44.87692" lon="-0.62184">
        <ele>27.53</ele>
        <time>2025-04-16T07:28:41Z</time>
      </trkpt>
      <trkpt lat="44.87692" lon="-0.62183">
        <ele>27.53</ele>
        <time>2025-04-16T07:29:08Z</time>
      </trkpt>
      <trkpt lat="44.8769" lon="-0.62183">
        <ele>27.05</ele>
        <time>2025-04-16T07:29:39Z</time>
      </trkpt>
      <trkpt lat="44.8769" lon="-0.6218">
        <ele>27.05</ele>
        <time>2025-04-16T07:29:59Z</time>
      </trkpt>
      <trkpt lat="44.87692" lon="-0.6218">
        <ele>27.53</ele>
        <time>2025-04-16T07:30:25Z</time>
      </trkpt>
      <trkpt lat="44.87695" lon="-0.6218">
        <ele>27.05</ele>
        <time>2025-04-16T07:30:50Z</time>
      </trkpt>
      <trkpt lat="44.87704" lon="-0.62174">
        <ele>26.09</ele>
        <time>2025-04-16T07:31:06Z</time>
      </trkpt>
      <trkpt lat="44.87731" lon="-0.62137">
        <ele>27.53</ele>
        <time>2025-04-16T07:31:19Z</time>
      </trkpt>
      <trkpt lat="44.87769" lon="-0.62086">
        <ele>28.02</ele>
        <time>2025-04-16T07:31:34Z</time>
      </trkpt>
      <trkpt lat="44.87806" lon="-0.62038">
        <ele>28.02</ele>
        <time>2025-04-16T07:31:48Z</time>
      </trkpt>
      <trkpt lat="44.87862" lon="-0.61974">
        <ele>29.46</ele>
        <time>2025-04-16T07:32:07Z</time>
      </trkpt>
      <trkpt lat="44.87898" lon="-0.61933">
        <ele>29.46</ele>
        <time>2025-04-16T07:32:20Z</time>
      </trkpt>
      <trkpt lat="44.87903" lon="-0.61923">
        <ele>29.94</ele>
        <time>2025-04-16T07:32:23Z</time>
      </trkpt>
      <trkpt lat="44.87903" lon="-0.6192">
        <ele>29.94</ele>
        <time>2025-04-16T07:32:24Z</time>
      </trkpt>
      <trkpt lat="44.87904" lon="-0.61916">
        <ele>29.94</ele>
        <time>2025-04-16T07:32:25Z</time>
      </trkpt>
      <trkpt lat="44.87905" lon="-0.61913">
        <ele>30.42</ele>
        <time>2025-04-16T07:32:26Z</time>
      </trkpt>
      <trkpt lat="44.87907" lon="-0.6191">
        <ele>29.94</ele>
        <time>2025-04-16T07:32:27Z</time>
      </trkpt>
      <trkpt lat="44.87909" lon="-0.61907">
        <ele>29.94</ele>
        <time>2025-04-16T07:32:28Z</time>
      </trkpt>
      <trkpt lat="44.87911" lon="-0.61903">
        <ele>29.94</ele>
        <time>2025-04-16T07:32:29Z</time>
      </trkpt>
      <trkpt lat="44.87942" lon="-0.61864">
        <ele>29.46</ele>
        <time>2025-04-16T07:32:43Z</time>
      </trkpt>
      <trkpt lat="44.87979" lon="-0.618">
        <ele>28.98</ele>
        <time>2025-04-16T07:32:58Z</time>
      </trkpt>
      <trkpt lat="44.87994" lon="-0.61779">
        <ele>28.98</ele>
        <time>2025-04-16T07:33:03Z</time>
      </trkpt>
      <trkpt lat="44.87997" lon="-0.61777">
        <ele>28.98</ele>
        <time>2025-04-16T07:33:04Z</time>
      </trkpt>
      <trkpt lat="44.88061" lon="-0.61747">
        <ele>28.98</ele>
        <time>2025-04-16T07:33:19Z</time>
      </trkpt>
      <trkpt lat="44.88134" lon="-0.61722">
        <ele>27.53</ele>
        <time>2025-04-16T07:33:38Z</time>
      </trkpt>
      <trkpt lat="44.88139" lon="-0.61722">
        <ele>28.02</ele>
        <time>2025-04-16T07:33:43Z</time>
      </trkpt>
      <trkpt lat="44.8814" lon="-0.61725">
        <ele>27.53</ele>
        <time>2025-04-16T07:33:44Z</time>
      </trkpt>
      <trkpt lat="44.88141" lon="-0.61729">
        <ele>27.05</ele>
        <time>2025-04-16T07:33:45Z</time>
      </trkpt>
      <trkpt lat="44.88142" lon="-0.61733">
        <ele>27.53</ele>
        <time>2025-04-16T07:33:46Z</time>
      </trkpt>
      <trkpt lat="44.88142" lon="-0.61737">
        <ele>27.05</ele>
        <time>2025-04-16T07:33:47Z</time>
      </trkpt>
      <trkpt lat="44.88158" lon="-0.61812">
        <ele>27.53</ele>
        <time>2025-04-16T07:34:03Z</time>
      </trkpt>
      <trkpt lat="44.8819" lon="-0.61923">
        <ele>26.57</ele>
        <time>2025-04-16T07:34:22Z</time>
      </trkpt>
      <trkpt lat="44.88203" lon="-0.61988">
        <ele>27.05</ele>
        <time>2025-04-16T07:34:38Z</time>
      </trkpt>
      <trkpt lat="44.88212" lon="-0.62032">
        <ele>26.57</ele>
        <time>2025-04-16T07:34:52Z</time>
      </trkpt>
      <trkpt lat="44.88224" lon="-0.62075">
        <ele>25.13</ele>
        <time>2025-04-16T07:35:08Z</time>
      </trkpt>
      <trkpt lat="44.88226" lon="-0.62092">
        <ele>26.09</ele>
        <time>2025-04-16T07:35:15Z</time>
      </trkpt>
      <trkpt lat="44.88226" lon="-0.62094">
        <ele>25.13</ele>
        <time>2025-04-16T07:35:16Z</time>
      </trkpt>
      <trkpt lat="44.88226" lon="-0.62097">
        <ele>25.13</ele>
        <time>2025-04-16T07:35:17Z</time>
      </trkpt>
      <trkpt lat="44.88225" lon="-0.62099">
        <ele>25.13</ele>
        <time>2025-04-16T07:35:18Z</time>
      </trkpt>
      <trkpt lat="44.88218" lon="-0.621">
        <ele>25.61</ele>
        <time>2025-04-16T07:35:28Z</time>
      </trkpt>
      <trkpt lat="44.88213" lon="-0.621">
        <ele>25.13</ele>
        <time>2025-04-16T07:35:59Z</time>
      </trkpt>
      <trkpt lat="44.88211" lon="-0.62099">
        <ele>24.65</ele>
        <time>2025-04-16T07:36:01Z</time>
      </trkpt>
      <trkpt lat="44.88196" lon="-0.62125">
        <ele>26.09</ele>
        <time>2025-04-16T07:36:12Z</time>
      </trkpt>
      <trkpt lat="44.88193" lon="-0.62195">
        <ele>28.5</ele>
        <time>2025-04-16T07:36:26Z</time>
      </trkpt>
      <trkpt lat="44.88198" lon="-0.6226">
        <ele>31.86</ele>
        <time>2025-04-16T07:36:40Z</time>
      </trkpt>
      <trkpt lat="44.88215" lon="-0.6234">
        <ele>34.74</ele>
        <time>2025-04-16T07:36:58Z</time>
      </trkpt>
      <trkpt lat="44.88248" lon="-0.62422">
        <ele>34.74</ele>
        <time>2025-04-16T07:37:18Z</time>
      </trkpt>
      <trkpt lat="44.88303" lon="-0.62507">
        <ele>32.82</ele>
        <time>2025-04-16T07:37:35Z</time>
      </trkpt>
      <trkpt lat="44.88317" lon="-0.62524">
        <ele>31.86</ele>
        <time>2025-04-16T07:37:38Z</time>
      </trkpt>
      <trkpt lat="44.88368" lon="-0.62566">
        <ele>31.38</ele>
        <time>2025-04-16T07:37:51Z</time>
      </trkpt>
      <trkpt lat="44.8837" lon="-0.62567">
        <ele>30.9</ele>
        <time>2025-04-16T07:38:03Z</time>
      </trkpt>
      <trkpt lat="44.88369" lon="-0.62566">
        <ele>30.9</ele>
        <time>2025-04-16T07:38:25Z</time>
      </trkpt>
      <trkpt lat="44.88373" lon="-0.62568">
        <ele>30.42</ele>
        <time>2025-04-16T07:38:46Z</time>
      </trkpt>
      <trkpt lat="44.88372" lon="-0.62566">
        <ele>30.42</ele>
        <time>2025-04-16T07:39:15Z</time>
      </trkpt>
      <trkpt lat="44.8838" lon="-0.62566">
        <ele>29.94</ele>
        <time>2025-04-16T07:39:49Z</time>
      </trkpt>
      <trkpt lat="44.88377" lon="-0.62562">
        <ele>29.94</ele>
        <time>2025-04-16T07:40:05Z</time>
      </trkpt>
      <trkpt lat="44.88375" lon="-0.62565">
        <ele>29.46</ele>
        <time>2025-04-16T07:40:44Z</time>
      </trkpt>
      <trkpt lat="44.88374" lon="-0.62564">
        <ele>29.46</ele>
        <time>2025-04-16T07:41:29Z</time>
      </trkpt>
      <trkpt lat="44.88374" lon="-0.62564">
        <ele>29.46</ele>
        <time>2025-04-16T07:42:06Z</time>
      </trkpt>
      <trkpt lat="44.88374" lon="-0.62563">
        <ele>28.98</ele>
        <time>2025-04-16T07:42:49Z</time>
      </trkpt>
      <trkpt lat="44.88376" lon="-0.62565">
        <ele>28.98</ele>
        <time>2025-04-16T07:43:21Z</time>
      </trkpt>
      <trkpt lat="44.88375" lon="-0.62566">
        <ele>28.98</ele>
        <time>2025-04-16T07:44:04Z</time>
      </trkpt>
      <trkpt lat="44.88371" lon="-0.62563">
        <ele>28.5</ele>
        <time>2025-04-16T07:44:47Z</time>
      </trkpt>
      <trkpt lat="44.88372" lon="-0.62562">
        <ele>28.5</ele>
        <time>2025-04-16T07:45:30Z</time>
      </trkpt>
      <trkpt lat="44.88376" lon="-0.62563">
        <ele>28.02</ele>
        <time>2025-04-16T07:46:04Z</time>
      </trkpt>
      <trkpt lat="44.88376" lon="-0.62564">
        <ele>27.53</ele>
        <time>2025-04-16T07:46:39Z</time>
      </trkpt>
      <trkpt lat="44.88378" lon="-0.62564">
        <ele>28.02</ele>
        <time>2025-04-16T07:47:12Z</time>
      </trkpt>
      <trkpt lat="44.88377" lon="-0.62564">
        <ele>28.02</ele>
        <time>2025-04-16T07:47:51Z</time>
      </trkpt>
      <trkpt lat="44.88374" lon="-0.62565">
        <ele>27.53</ele>
        <time>2025-04-16T07:48:31Z</time>
      </trkpt>
      <trkpt lat="44.88376" lon="-0.62565">
        <ele>28.02</ele>
        <time>2025-04-16T07:49:15Z</time>
      </trkpt>
      <trkpt lat="44.88376" lon="-0.62563">
        <ele>27.53</ele>
        <time>2025-04-16T07:49:45Z</time>
      </trkpt>
      <trkpt lat="44.88375" lon="-0.62562">
        <ele>27.53</ele>
        <time>2025-04-16T07:50:12Z</time>
      </trkpt>
      <trkpt lat="44.88381" lon="-0.62564">
        <ele>27.53</ele>
        <time>2025-04-16T07:50:25Z</time>
      </trkpt>
      <trkpt lat="44.88381" lon="-0.62566">
        <ele>27.53</ele>
        <time>2025-04-16T07:50:26Z</time>
      </trkpt>
      <trkpt lat="44.88382" lon="-0.62569">
        <ele>28.02</ele>
        <time>2025-04-16T07:50:27Z</time>
      </trkpt>
      <trkpt lat="44.88383" lon="-0.62571">
        <ele>28.02</ele>
        <time>2025-04-16T07:50:28Z</time>
      </trkpt>
      <trkpt lat="44.88384" lon="-0.62574">
        <ele>27.53</ele>
        <time>2025-04-16T07:50:29Z</time>
      </trkpt>
      <trkpt lat="44.88395" lon="-0.62598">
        <ele>27.53</ele>
        <time>2025-04-16T07:50:41Z</time>
      </trkpt>
      <trkpt lat="44.88415" lon="-0.62639">
        <ele>28.5</ele>
        <time>2025-04-16T07:50:57Z</time>
      </trkpt>
      <trkpt lat="44.88419" lon="-0.62655">
        <ele>28.02</ele>
        <time>2025-04-16T07:51:02Z</time>
      </trkpt>
      <trkpt lat="44.88421" lon="-0.62656">
        <ele>28.02</ele>
        <time>2025-04-16T07:51:03Z</time>
      </trkpt>
      <trkpt lat="44.88422" lon="-0.62657">
        <ele>28.5</ele>
        <time>2025-04-16T07:51:04Z</time>
      </trkpt>
      <trkpt lat="44.88422" lon="-0.62659">
        <ele>28.02</ele>
        <time>2025-04-16T07:51:05Z</time>
      </trkpt>
      <trkpt lat="44.88423" lon="-0.62662">
        <ele>28.02</ele>
        <time>2025-04-16T07:51:06Z</time>
      </trkpt>
      <trkpt lat="44.88424" lon="-0.62664">
        <ele>28.02</ele>
        <time>2025-04-16T07:51:07Z</time>
      </trkpt>
      <trkpt lat="44.88424" lon="-0.62667">
        <ele>28.02</ele>
        <time>2025-04-16T07:51:08Z</time>
      </trkpt>
      <trkpt lat="44.88431" lon="-0.62683">
        <ele>28.02</ele>
        <time>2025-04-16T07:51:14Z</time>
      </trkpt>
      <trkpt lat="44.88432" lon="-0.62685">
        <ele>28.02</ele>
        <time>2025-04-16T07:51:27Z</time>
      </trkpt>
      <trkpt lat="44.88438" lon="-0.62701">
        <ele>28.02</ele>
        <time>2025-04-16T07:51:45Z</time>
      </trkpt>
      <trkpt lat="44.88464" lon="-0.62761">
        <ele>26.09</ele>
        <time>2025-04-16T07:52:02Z</time>
      </trkpt>
      <trkpt lat="44.88481" lon="-0.62817">
        <ele>26.57</ele>
        <time>2025-04-16T07:52:15Z</time>
      </trkpt>
      <trkpt lat="44.8849" lon="-0.62846">
        <ele>25.61</ele>
        <time>2025-04-16T07:52:26Z</time>
      </trkpt>
      <trkpt lat="44.88491" lon="-0.62853">
        <ele>26.09</ele>
        <time>2025-04-16T07:52:38Z</time>
      </trkpt>
      <trkpt lat="44.88492" lon="-0.62859">
        <ele>26.09</ele>
        <time>2025-04-16T07:52:51Z</time>
      </trkpt>
      <trkpt lat="44.88491" lon="-0.6285">
        <ele>26.09</ele>
        <time>2025-04-16T07:53:05Z</time>
      </trkpt>
      <trkpt lat="44.88494" lon="-0.62853">
        <ele>25.61</ele>
        <time>2025-04-16T07:53:28Z</time>
      </trkpt>
      <trkpt lat="44.88497" lon="-0.62853">
        <ele>25.61</ele>
        <time>2025-04-16T07:53:50Z</time>
      </trkpt>
      <trkpt lat="44.88497" lon="-0.62853">
        <ele>26.57</ele>
        <time>2025-04-16T07:54:12Z</time>
      </trkpt>
      <trkpt lat="44.88499" lon="-0.62853">
        <ele>26.09</ele>
        <time>2025-04-16T07:54:33Z</time>
      </trkpt>
      <trkpt lat="44.88503" lon="-0.62851">
        <ele>25.61</ele>
        <time>2025-04-16T07:54:56Z</time>
      </trkpt>
      <trkpt lat="44.88502" lon="-0.6285">
        <ele>26.09</ele>
        <time>2025-04-16T07:55:15Z</time>
      </trkpt>
      <trkpt lat="44.88492" lon="-0.62849">
        <ele>26.57</ele>
        <time>2025-04-16T07:55:25Z</time>
      </trkpt>
      <trkpt lat="44.88473" lon="-0.62791">
        <ele>27.05</ele>
        <time>2025-04-16T07:55:41Z</time>
      </trkpt>
      <trkpt lat="44.88467" lon="-0.62779">
        <ele>27.05</ele>
        <time>2025-04-16T07:55:50Z</time>
      </trkpt>
      <trkpt lat="44.8847" lon="-0.62782">
        <ele>26.57</ele>
        <time>2025-04-16T07:56:18Z</time>
      </trkpt>
      <trkpt lat="44.88464" lon="-0.62771">
        <ele>27.05</ele>
        <time>2025-04-16T07:56:34Z</time>
      </trkpt>
      <trkpt lat="44.88463" lon="-0.62768">
        <ele>27.05</ele>
        <time>2025-04-16T07:56:35Z</time>
      </trkpt>
      <trkpt lat="44.88462" lon="-0.62765">
        <ele>27.05</ele>
        <time>2025-04-16T07:56:36Z</time>
      </trkpt>
      <trkpt lat="44.88461" lon="-0.62762">
        <ele>26.57</ele>
        <time>2025-04-16T07:56:37Z</time>
      </trkpt>
      <trkpt lat="44.8846" lon="-0.62758">
        <ele>27.05</ele>
        <time>2025-04-16T07:56:38Z</time>
      </trkpt>
      <trkpt lat="44.88442" lon="-0.62702">
        <ele>28.02</ele>
        <time>2025-04-16T07:56:50Z</time>
      </trkpt>
      <trkpt lat="44.88438" lon="-0.62694">
        <ele>28.5</ele>
        <time>2025-04-16T07:57:00Z</time>
      </trkpt>
      <trkpt lat="44.88439" lon="-0.62688">
        <ele>28.5</ele>
        <time>2025-04-16T07:57:33Z</time>
      </trkpt>
      <trkpt lat="44.88435" lon="-0.6269">
        <ele>28.5</ele>
        <time>2025-04-16T07:57:48Z</time>
      </trkpt>
      <trkpt lat="44.88433" lon="-0.62692">
        <ele>28.5</ele>
        <time>2025-04-16T07:57:50Z</time>
      </trkpt>
      <trkpt lat="44.8843" lon="-0.62695">
        <ele>28.98</ele>
        <time>2025-04-16T07:58:03Z</time>
      </trkpt>
      <trkpt lat="44.88438" lon="-0.62695">
        <ele>29.46</ele>
        <time>2025-04-16T07:58:31Z</time>
      </trkpt>
      <trkpt lat="44.8844" lon="-0.62697">
        <ele>29.46</ele>
        <time>2025-04-16T07:59:07Z</time>
      </trkpt>
      <trkpt lat="44.88437" lon="-0.62692">
        <ele>29.46</ele>
        <time>2025-04-16T07:59:32Z</time>
      </trkpt>
      <trkpt lat="44.88437" lon="-0.62693">
        <ele>30.42</ele>
        <time>2025-04-16T08:00:06Z</time>
      </trkpt>
      <trkpt lat="44.88436" lon="-0.62693">
        <ele>29.94</ele>
        <time>2025-04-16T08:00:28Z</time>
      </trkpt>
      <trkpt lat="44.88429" lon="-0.62696">
        <ele>29.94</ele>
        <time>2025-04-16T08:00:57Z</time>
      </trkpt>
      <trkpt lat="44.88428" lon="-0.62696">
        <ele>30.42</ele>
        <time>2025-04-16T08:01:22Z</time>
      </trkpt>
      <trkpt lat="44.88428" lon="-0.62695">
        <ele>30.42</ele>
        <time>2025-04-16T08:01:24Z</time>
      </trkpt>
      <trkpt lat="44.88413" lon="-0.62644">
        <ele>29.94</ele>
        <time>2025-04-16T08:01:38Z</time>
      </trkpt>
      <trkpt lat="44.88389" lon="-0.62598">
        <ele>29.94</ele>
        <time>2025-04-16T08:01:52Z</time>
      </trkpt>
      <trkpt lat="44.8835" lon="-0.62562">
        <ele>30.42</ele>
        <time>2025-04-16T08:02:07Z</time>
      </trkpt>
      <trkpt lat="44.88316" lon="-0.62531">
        <ele>30.42</ele>
        <time>2025-04-16T08:02:20Z</time>
      </trkpt>
      <trkpt lat="44.88281" lon="-0.62489">
        <ele>31.86</ele>
        <time>2025-04-16T08:02:35Z</time>
      </trkpt>
      <trkpt lat="44.88258" lon="-0.62451">
        <ele>33.3</ele>
        <time>2025-04-16T08:02:48Z</time>
      </trkpt>
      <trkpt lat="44.88228" lon="-0.62392">
        <ele>34.26</ele>
        <time>2025-04-16T08:03:03Z</time>
      </trkpt>
      <trkpt lat="44.882" lon="-0.62298">
        <ele>31.86</ele>
        <time>2025-04-16T08:03:20Z</time>
      </trkpt>
      <trkpt lat="44.88192" lon="-0.62234">
        <ele>28.5</ele>
        <time>2025-04-16T08:03:30Z</time>
      </trkpt>
      <trkpt lat="44.8819" lon="-0.62196">
        <ele>26.57</ele>
        <time>2025-04-16T08:03:36Z</time>
      </trkpt>
      <trkpt lat="44.8819" lon="-0.62158">
        <ele>25.13</ele>
        <time>2025-04-16T08:03:47Z</time>
      </trkpt>
      <trkpt lat="44.88188" lon="-0.62132">
        <ele>23.69</ele>
        <time>2025-04-16T08:04:02Z</time>
      </trkpt>
      <trkpt lat="44.88183" lon="-0.62093">
        <ele>22.73</ele>
        <time>2025-04-16T08:04:16Z</time>
      </trkpt>
      <trkpt lat="44.8818" lon="-0.6209">
        <ele>22.73</ele>
        <time>2025-04-16T08:04:22Z</time>
      </trkpt>
      <trkpt lat="44.88179" lon="-0.62089">
        <ele>22.73</ele>
        <time>2025-04-16T08:04:23Z</time>
      </trkpt>
      <trkpt lat="44.88178" lon="-0.62088">
        <ele>23.21</ele>
        <time>2025-04-16T08:04:24Z</time>
      </trkpt>
      <trkpt lat="44.88177" lon="-0.62088">
        <ele>22.73</ele>
        <time>2025-04-16T08:04:25Z</time>
      </trkpt>
      <trkpt lat="44.88176" lon="-0.62088">
        <ele>22.73</ele>
        <time>2025-04-16T08:04:26Z</time>
      </trkpt>
      <trkpt lat="44.88174" lon="-0.62088">
        <ele>22.73</ele>
        <time>2025-04-16T08:04:27Z</time>
      </trkpt>
      <trkpt lat="44.88173" lon="-0.62088">
        <ele>23.21</ele>
        <time>2025-04-16T08:04:28Z</time>
      </trkpt>
      <trkpt lat="44.88172" lon="-0.62089">
        <ele>22.73</ele>
        <time>2025-04-16T08:04:29Z</time>
      </trkpt>
      <trkpt lat="44.88171" lon="-0.6209">
        <ele>23.21</ele>
        <time>2025-04-16T08:04:30Z</time>
      </trkpt>
      <trkpt lat="44.88171" lon="-0.62092">
        <ele>22.73</ele>
        <time>2025-04-16T08:04:31Z</time>
      </trkpt>
      <trkpt lat="44.8817" lon="-0.62093">
        <ele>23.21</ele>
        <time>2025-04-16T08:04:32Z</time>
      </trkpt>
      <trkpt lat="44.88168" lon="-0.62093">
        <ele>23.21</ele>
        <time>2025-04-16T08:04:35Z</time>
      </trkpt>
      <trkpt lat="44.88162" lon="-0.62093">
        <ele>22.73</ele>
        <time>2025-04-16T08:04:47Z</time>
      </trkpt>
      <trkpt lat="44.88161" lon="-0.62088">
        <ele>23.21</ele>
        <time>2025-04-16T08:04:56Z</time>
      </trkpt>
      <trkpt lat="44.88164" lon="-0.62083">
        <ele>22.73</ele>
        <time>2025-04-16T08:04:59Z</time>
      </trkpt>
      <trkpt lat="44.88163" lon="-0.6208">
        <ele>23.21</ele>
        <time>2025-04-16T08:05:00Z</time>
      </trkpt>
      <trkpt lat="44.88162" lon="-0.62078">
        <ele>23.21</ele>
        <time>2025-04-16T08:05:01Z</time>
      </trkpt>
      <trkpt lat="44.88149" lon="-0.62062">
        <ele>23.21</ele>
        <time>2025-04-16T08:05:13Z</time>
      </trkpt>
      <trkpt lat="44.88147" lon="-0.62064">
        <ele>23.69</ele>
        <time>2025-04-16T08:05:22Z</time>
      </trkpt>
      <trkpt lat="44.88146" lon="-0.62068">
        <ele>23.69</ele>
        <time>2025-04-16T08:05:35Z</time>
      </trkpt>
      <trkpt lat="44.88146" lon="-0.62069">
        <ele>23.69</ele>
        <time>2025-04-16T08:05:53Z</time>
      </trkpt>
      <trkpt lat="44.88144" lon="-0.62072">
        <ele>23.21</ele>
        <time>2025-04-16T08:06:13Z</time>
      </trkpt>
      <trkpt lat="44.88136" lon="-0.62064">
        <ele>23.21</ele>
        <time>2025-04-16T08:06:40Z</time>
      </trkpt>
      <trkpt lat="44.88138" lon="-0.62064">
        <ele>23.21</ele>
        <time>2025-04-16T08:07:04Z</time>
      </trkpt>
      <trkpt lat="44.88142" lon="-0.62065">
        <ele>23.21</ele>
        <time>2025-04-16T08:07:13Z</time>
      </trkpt>
      <trkpt lat="44.88142" lon="-0.62038">
        <ele>23.69</ele>
        <time>2025-04-16T08:07:25Z</time>
      </trkpt>
      <trkpt lat="44.88119" lon="-0.6202">
        <ele>24.65</ele>
        <time>2025-04-16T08:07:37Z</time>
      </trkpt>
      <trkpt lat="44.88087" lon="-0.61996">
        <ele>25.13</ele>
        <time>2025-04-16T08:07:53Z</time>
      </trkpt>
      <trkpt lat="44.88054" lon="-0.61967">
        <ele>26.57</ele>
        <time>2025-04-16T08:08:10Z</time>
      </trkpt>
      <trkpt lat="44.8802" lon="-0.61932">
        <ele>25.61</ele>
        <time>2025-04-16T08:08:27Z</time>
      </trkpt>
      <trkpt lat="44.8802" lon="-0.61926">
        <ele>25.13</ele>
        <time>2025-04-16T08:08:39Z</time>
      </trkpt>
      <trkpt lat="44.88018" lon="-0.61922">
        <ele>24.65</ele>
        <time>2025-04-16T08:08:45Z</time>
      </trkpt>
      <trkpt lat="44.88002" lon="-0.61884">
        <ele>25.13</ele>
        <time>2025-04-16T08:08:59Z</time>
      </trkpt>
      <trkpt lat="44.87978" lon="-0.61828">
        <ele>24.65</ele>
        <time>2025-04-16T08:09:16Z</time>
      </trkpt>
      <trkpt lat="44.87972" lon="-0.61821">
        <ele>24.65</ele>
        <time>2025-04-16T08:09:27Z</time>
      </trkpt>
      <trkpt lat="44.8797" lon="-0.61821">
        <ele>24.65</ele>
        <time>2025-04-16T08:09:31Z</time>
      </trkpt>
      <trkpt lat="44.87968" lon="-0.61822">
        <ele>25.13</ele>
        <time>2025-04-16T08:09:32Z</time>
      </trkpt>
      <trkpt lat="44.87967" lon="-0.61824">
        <ele>25.13</ele>
        <time>2025-04-16T08:09:33Z</time>
      </trkpt>
      <trkpt lat="44.87942" lon="-0.61863">
        <ele>25.13</ele>
        <time>2025-04-16T08:09:45Z</time>
      </trkpt>
      <trkpt lat="44.87937" lon="-0.61868">
        <ele>25.13</ele>
        <time>2025-04-16T08:09:47Z</time>
      </trkpt>
      <trkpt lat="44.87934" lon="-0.61868">
        <ele>25.13</ele>
        <time>2025-04-16T08:09:48Z</time>
      </trkpt>
      <trkpt lat="44.87928" lon="-0.6186">
        <ele>25.13</ele>
        <time>2025-04-16T08:09:54Z</time>
      </trkpt>
      <trkpt lat="44.87924" lon="-0.6185">
        <ele>24.65</ele>
        <time>2025-04-16T08:10:08Z</time>
      </trkpt>
      <trkpt lat="44.87923" lon="-0.61851">
        <ele>24.65</ele>
        <time>2025-04-16T08:10:38Z</time>
      </trkpt>
      <trkpt lat="44.87925" lon="-0.61857">
        <ele>24.65</ele>
        <time>2025-04-16T08:11:19Z</time>
      </trkpt>
      <trkpt lat="44.87928" lon="-0.61854">
        <ele>24.17</ele>
        <time>2025-04-16T08:12:00Z</time>
      </trkpt>
      <trkpt lat="44.8792" lon="-0.61848">
        <ele>24.65</ele>
        <time>2025-04-16T08:12:36Z</time>
      </trkpt>
      <trkpt lat="44.87919" lon="-0.6185">
        <ele>24.65</ele>
        <time>2025-04-16T08:13:24Z</time>
      </trkpt>
      <trkpt lat="44.87922" lon="-0.61846">
        <ele>24.17</ele>
        <time>2025-04-16T08:14:08Z</time>
      </trkpt>
      <trkpt lat="44.87926" lon="-0.61848">
        <ele>24.17</ele>
        <time>2025-04-16T08:14:47Z</time>
      </trkpt>
      <trkpt lat="44.87926" lon="-0.61846">
        <ele>24.17</ele>
        <time>2025-04-16T08:14:53Z</time>
      </trkpt>
      <trkpt lat="44.87916" lon="-0.61825">
        <ele>24.17</ele>
        <time>2025-04-16T08:15:01Z</time>
      </trkpt>
      <trkpt lat="44.87877" lon="-0.61752">
        <ele>22.73</ele>
        <time>2025-04-16T08:15:19Z</time>
      </trkpt>
      <trkpt lat="44.87848" lon="-0.6168">
        <ele>22.25</ele>
        <time>2025-04-16T08:15:35Z</time>
      </trkpt>
      <trkpt lat="44.87832" lon="-0.61594">
        <ele>20.81</ele>
        <time>2025-04-16T08:15:53Z</time>
      </trkpt>
      <trkpt lat="44.87818" lon="-0.61563">
        <ele>21.29</ele>
        <time>2025-04-16T08:16:01Z</time>
      </trkpt>
      <trkpt lat="44.87811" lon="-0.6151">
        <ele>21.29</ele>
        <time>2025-04-16T08:16:17Z</time>
      </trkpt>
      <trkpt lat="44.87811" lon="-0.61508">
        <ele>21.29</ele>
        <time>2025-04-16T08:16:18Z</time>
      </trkpt>
      <trkpt lat="44.87811" lon="-0.61507">
        <ele>20.81</ele>
        <time>2025-04-16T08:16:19Z</time>
      </trkpt>
      <trkpt lat="44.87811" lon="-0.6147">
        <ele>21.29</ele>
        <time>2025-04-16T08:16:33Z</time>
      </trkpt>
      <trkpt lat="44.87807" lon="-0.61428">
        <ele>21.77</ele>
        <time>2025-04-16T08:16:48Z</time>
      </trkpt>
      <trkpt lat="44.87812" lon="-0.61425">
        <ele>21.77</ele>
        <time>2025-04-16T08:17:02Z</time>
      </trkpt>
      <trkpt lat="44.87807" lon="-0.61425">
        <ele>21.29</ele>
        <time>2025-04-16T08:17:28Z</time>
      </trkpt>
      <trkpt lat="44.8781" lon="-0.61421">
        <ele>21.29</ele>
        <time>2025-04-16T08:17:53Z</time>
      </trkpt>
      <trkpt lat="44.87809" lon="-0.6142">
        <ele>21.29</ele>
        <time>2025-04-16T08:17:54Z</time>
      </trkpt>
      <trkpt lat="44.87808" lon="-0.61418">
        <ele>21.29</ele>
        <time>2025-04-16T08:17:55Z</time>
      </trkpt>
      <trkpt lat="44.87806" lon="-0.61417">
        <ele>20.81</ele>
        <time>2025-04-16T08:17:56Z</time>
      </trkpt>
      <trkpt lat="44.87805" lon="-0.61415">
        <ele>21.29</ele>
        <time>2025-04-16T08:17:57Z</time>
      </trkpt>
      <trkpt lat="44.87803" lon="-0.61412">
        <ele>21.29</ele>
        <time>2025-04-16T08:17:58Z</time>
      </trkpt>
      <trkpt lat="44.87802" lon="-0.6141">
        <ele>21.29</ele>
        <time>2025-04-16T08:17:59Z</time>
      </trkpt>
      <trkpt lat="44.87801" lon="-0.61409">
        <ele>21.29</ele>
        <time>2025-04-16T08:18:00Z</time>
      </trkpt>
      <trkpt lat="44.87799" lon="-0.61408">
        <ele>21.29</ele>
        <time>2025-04-16T08:18:01Z</time>
      </trkpt>
      <trkpt lat="44.87798" lon="-0.61407">
        <ele>20.81</ele>
        <time>2025-04-16T08:18:02Z</time>
      </trkpt>
      <trkpt lat="44.87795" lon="-0.61402">
        <ele>20.81</ele>
        <time>2025-04-16T08:18:16Z</time>
      </trkpt>
      <trkpt lat="44.87798" lon="-0.61404">
        <ele>20.32</ele>
        <time>2025-04-16T08:18:26Z</time>
      </trkpt>
      <trkpt lat="44.87799" lon="-0.61405">
        <ele>20.81</ele>
        <time>2025-04-16T08:18:27Z</time>
      </trkpt>
      <trkpt lat="44.878" lon="-0.61406">
        <ele>20.81</ele>
        <time>2025-04-16T08:18:28Z</time>
      </trkpt>
      <trkpt lat="44.878" lon="-0.61408">
        <ele>20.81</ele>
        <time>2025-04-16T08:18:29Z</time>
      </trkpt>
      <trkpt lat="44.87801" lon="-0.61409">
        <ele>20.81</ele>
        <time>2025-04-16T08:18:30Z</time>
      </trkpt>
      <trkpt lat="44.87802" lon="-0.6141">
        <ele>21.29</ele>
        <time>2025-04-16T08:18:31Z</time>
      </trkpt>
      <trkpt lat="44.87803" lon="-0.61412">
        <ele>21.29</ele>
        <time>2025-04-16T08:18:32Z</time>
      </trkpt>
      <trkpt lat="44.87804" lon="-0.61414">
        <ele>21.29</ele>
        <time>2025-04-16T08:18:33Z</time>
      </trkpt>
      <trkpt lat="44.87805" lon="-0.61416">
        <ele>21.29</ele>
        <time>2025-04-16T08:18:34Z</time>
      </trkpt>
      <trkpt lat="44.87811" lon="-0.61421">
        <ele>21.77</ele>
        <time>2025-04-16T08:18:38Z</time>
      </trkpt>
      <trkpt lat="44.87813" lon="-0.6142">
        <ele>21.77</ele>
        <time>2025-04-16T08:18:39Z</time>
      </trkpt>
      <trkpt lat="44.87814" lon="-0.61417">
        <ele>21.77</ele>
        <time>2025-04-16T08:18:40Z</time>
      </trkpt>
      <trkpt lat="44.87815" lon="-0.61415">
        <ele>21.77</ele>
        <time>2025-04-16T08:18:41Z</time>
      </trkpt>
      <trkpt lat="44.87817" lon="-0.61412">
        <ele>21.29</ele>
        <time>2025-04-16T08:18:42Z</time>
      </trkpt>
      <trkpt lat="44.87819" lon="-0.6141">
        <ele>21.77</ele>
        <time>2025-04-16T08:18:43Z</time>
      </trkpt>
      <trkpt lat="44.87843" lon="-0.61383">
        <ele>22.73</ele>
        <time>2025-04-16T08:18:57Z</time>
      </trkpt>
      <trkpt lat="44.87868" lon="-0.61355">
        <ele>23.69</ele>
        <time>2025-04-16T08:19:12Z</time>
      </trkpt>
      <trkpt lat="44.87892" lon="-0.61329">
        <ele>24.17</ele>
        <time>2025-04-16T08:19:26Z</time>
      </trkpt>
      <trkpt lat="44.87891" lon="-0.61327">
        <ele>24.17</ele>
        <time>2025-04-16T08:19:42Z</time>
      </trkpt>
      <trkpt lat="44.8789" lon="-0.61332">
        <ele>24.17</ele>
        <time>2025-04-16T08:20:15Z</time>
      </trkpt>
      <trkpt lat="44.87891" lon="-0.6134">
        <ele>24.17</ele>
        <time>2025-04-16T08:20:45Z</time>
      </trkpt>
      <trkpt lat="44.87889" lon="-0.61346">
        <ele>24.65</ele>
        <time>2025-04-16T08:21:14Z</time>
      </trkpt>
      <trkpt lat="44.87888" lon="-0.61328">
        <ele>24.17</ele>
        <time>2025-04-16T08:21:51Z</time>
      </trkpt>
      <trkpt lat="44.87887" lon="-0.61333">
        <ele>24.65</ele>
        <time>2025-04-16T08:22:22Z</time>
      </trkpt>
      <trkpt lat="44.87888" lon="-0.61325">
        <ele>24.17</ele>
        <time>2025-04-16T08:22:53Z</time>
      </trkpt>
      <trkpt lat="44.8789" lon="-0.61323">
        <ele>24.65</ele>
        <time>2025-04-16T08:23:14Z</time>
      </trkpt>
      <trkpt lat="44.87894" lon="-0.61324">
        <ele>24.65</ele>
        <time>2025-04-16T08:23:44Z</time>
      </trkpt>
      <trkpt lat="44.87897" lon="-0.61322">
        <ele>24.17</ele>
        <time>2025-04-16T08:23:48Z</time>
      </trkpt>
      <trkpt lat="44.87898" lon="-0.61321">
        <ele>25.13</ele>
        <time>2025-04-16T08:23:49Z</time>
      </trkpt>
      <trkpt lat="44.879" lon="-0.61319">
        <ele>24.65</ele>
        <time>2025-04-16T08:23:50Z</time>
      </trkpt>
      <trkpt lat="44.87901" lon="-0.61316">
        <ele>25.13</ele>
        <time>2025-04-16T08:23:51Z</time>
      </trkpt>
      <trkpt lat="44.87904" lon="-0.61314">
        <ele>25.13</ele>
        <time>2025-04-16T08:23:52Z</time>
      </trkpt>
      <trkpt lat="44.87906" lon="-0.61312">
        <ele>25.13</ele>
        <time>2025-04-16T08:23:53Z</time>
      </trkpt>
      <trkpt lat="44.87926" lon="-0.61288">
        <ele>25.61</ele>
        <time>2025-04-16T08:24:07Z</time>
      </trkpt>
      <trkpt lat="44.87933" lon="-0.61282">
        <ele>25.61</ele>
        <time>2025-04-16T08:24:25Z</time>
      </trkpt>
      <trkpt lat="44.87952" lon="-0.61268">
        <ele>25.61</ele>
        <time>2025-04-16T08:24:40Z</time>
      </trkpt>
      <trkpt lat="44.87977" lon="-0.61249">
        <ele>25.61</ele>
        <time>2025-04-16T08:24:51Z</time>
      </trkpt>
      <trkpt lat="44.88012" lon="-0.61222">
        <ele>25.61</ele>
        <time>2025-04-16T08:25:04Z</time>
      </trkpt>
      <trkpt lat="44.88072" lon="-0.61193">
        <ele>24.65</ele>
        <time>2025-04-16T08:25:22Z</time>
      </trkpt>
      <trkpt lat="44.88082" lon="-0.61193">
        <ele>25.61</ele>
        <time>2025-04-16T08:25:27Z</time>
      </trkpt>
      <trkpt lat="44.88083" lon="-0.61193">
        <ele>25.13</ele>
        <time>2025-04-16T08:25:28Z</time>
      </trkpt>
      <trkpt lat="44.88085" lon="-0.61193">
        <ele>24.65</ele>
        <time>2025-04-16T08:25:29Z</time>
      </trkpt>
      <trkpt lat="44.88088" lon="-0.61193">
        <ele>25.61</ele>
        <time>2025-04-16T08:25:30Z</time>
      </trkpt>
      <trkpt lat="44.8809" lon="-0.61192">
        <ele>25.13</ele>
        <time>2025-04-16T08:25:31Z</time>
      </trkpt>
      <trkpt lat="44.88092" lon="-0.61191">
        <ele>25.61</ele>
        <time>2025-04-16T08:25:32Z</time>
      </trkpt>
      <trkpt lat="44.88093" lon="-0.6119">
        <ele>25.13</ele>
        <time>2025-04-16T08:25:33Z</time>
      </trkpt>
      <trkpt lat="44.88095" lon="-0.61188">
        <ele>24.65</ele>
        <time>2025-04-16T08:25:34Z</time>
      </trkpt>
      <trkpt lat="44.88097" lon="-0.61186">
        <ele>25.13</ele>
        <time>2025-04-16T08:25:35Z</time>
      </trkpt>
      <trkpt lat="44.881" lon="-0.61183">
        <ele>24.65</ele>
        <time>2025-04-16T08:25:36Z</time>
      </trkpt>
      <trkpt lat="44.88102" lon="-0.61183">
        <ele>25.13</ele>
        <time>2025-04-16T08:25:37Z</time>
      </trkpt>
      <trkpt lat="44.88104" lon="-0.61183">
        <ele>25.13</ele>
        <time>2025-04-16T08:25:38Z</time>
      </trkpt>
      <trkpt lat="44.88115" lon="-0.61181">
        <ele>24.17</ele>
        <time>2025-04-16T08:25:53Z</time>
      </trkpt>
      <trkpt lat="44.88125" lon="-0.61181">
        <ele>24.65</ele>
        <time>2025-04-16T08:26:19Z</time>
      </trkpt>
      <trkpt lat="44.88153" lon="-0.61175">
        <ele>23.69</ele>
        <time>2025-04-16T08:26:30Z</time>
      </trkpt>
      <trkpt lat="44.88157" lon="-0.61169">
        <ele>23.69</ele>
        <time>2025-04-16T08:26:42Z</time>
      </trkpt>
      <trkpt lat="44.88157" lon="-0.61172">
        <ele>24.17</ele>
        <time>2025-04-16T08:26:53Z</time>
      </trkpt>
      <trkpt lat="44.88142" lon="-0.61176">
        <ele>24.65</ele>
        <time>2025-04-16T08:27:08Z</time>
      </trkpt>
      <trkpt lat="44.88139" lon="-0.61182">
        <ele>23.69</ele>
        <time>2025-04-16T08:27:36Z</time>
      </trkpt>
      <trkpt lat="44.88133" lon="-0.61186">
        <ele>24.17</ele>
        <time>2025-04-16T08:28:11Z</time>
      </trkpt>
      <trkpt lat="44.88135" lon="-0.61191">
        <ele>24.17</ele>
        <time>2025-04-16T08:28:46Z</time>
      </trkpt>
      <trkpt lat="44.88141" lon="-0.61185">
        <ele>24.17</ele>
        <time>2025-04-16T08:29:11Z</time>
      </trkpt>
      <trkpt lat="44.88148" lon="-0.61178">
        <ele>24.65</ele>
        <time>2025-04-16T08:29:45Z</time>
      </trkpt>
      <trkpt lat="44.8815" lon="-0.61184">
        <ele>25.13</ele>
        <time>2025-04-16T08:30:10Z</time>
      </trkpt>
      <trkpt lat="44.8815" lon="-0.61181">
        <ele>25.13</ele>
        <time>2025-04-16T08:30:36Z</time>
      </trkpt>
      <trkpt lat="44.88152" lon="-0.61184">
        <ele>25.13</ele>
        <time>2025-04-16T08:31:05Z</time>
      </trkpt>
      <trkpt lat="44.88154" lon="-0.61179">
        <ele>25.13</ele>
        <time>2025-04-16T08:31:24Z</time>
      </trkpt>
      <trkpt lat="44.88181" lon="-0.61165">
        <ele>25.13</ele>
        <time>2025-04-16T08:31:38Z</time>
      </trkpt>
      <trkpt lat="44.8819" lon="-0.61164">
        <ele>25.13</ele>
        <time>2025-04-16T08:31:49Z</time>
      </trkpt>
      <trkpt lat="44.88184" lon="-0.61151">
        <ele>25.13</ele>
        <time>2025-04-16T08:32:16Z</time>
      </trkpt>
      <trkpt lat="44.88184" lon="-0.61151">
        <ele>24.65</ele>
        <time>2025-04-16T08:32:44Z</time>
      </trkpt>
      <trkpt lat="44.88187" lon="-0.61153">
        <ele>25.13</ele>
        <time>2025-04-16T08:33:09Z</time>
      </trkpt>
      <trkpt lat="44.88188" lon="-0.61152">
        <ele>24.65</ele>
        <time>2025-04-16T08:33:10Z</time>
      </trkpt>
      <trkpt lat="44.88202" lon="-0.61153">
        <ele>24.65</ele>
        <time>2025-04-16T08:33:23Z</time>
      </trkpt>
      <trkpt lat="44.88206" lon="-0.61155">
        <ele>24.17</ele>
        <time>2025-04-16T08:33:46Z</time>
      </trkpt>
      <trkpt lat="44.88204" lon="-0.61153">
        <ele>24.65</ele>
        <time>2025-04-16T08:34:13Z</time>
      </trkpt>
      <trkpt lat="44.88226" lon="-0.61139">
        <ele>23.69</ele>
        <time>2025-04-16T08:34:25Z</time>
      </trkpt>
      <trkpt lat="44.88252" lon="-0.61124">
        <ele>23.21</ele>
        <time>2025-04-16T08:34:37Z</time>
      </trkpt>
      <trkpt lat="44.8826" lon="-0.61117">
        <ele>23.21</ele>
        <time>2025-04-16T08:34:49Z</time>
      </trkpt>
      <trkpt lat="44.88256" lon="-0.61125">
        <ele>22.73</ele>
        <time>2025-04-16T08:35:00Z</time>
      </trkpt>
      <trkpt lat="44.88256" lon="-0.61127">
        <ele>23.21</ele>
        <time>2025-04-16T08:35:12Z</time>
      </trkpt>
      <trkpt lat="44.88256" lon="-0.61126">
        <ele>23.21</ele>
        <time>2025-04-16T08:35:29Z</time>
      </trkpt>
      <trkpt lat="44.88255" lon="-0.61122">
        <ele>23.69</ele>
        <time>2025-04-16T08:35:39Z</time>
      </trkpt>
      <trkpt lat="44.88255" lon="-0.6112">
        <ele>23.21</ele>
        <time>2025-04-16T08:35:40Z</time>
      </trkpt>
      <trkpt lat="44.88256" lon="-0.61119">
        <ele>22.73</ele>
        <time>2025-04-16T08:35:41Z</time>
      </trkpt>
      <trkpt lat="44.88257" lon="-0.61118">
        <ele>23.21</ele>
        <time>2025-04-16T08:35:42Z</time>
      </trkpt>
      <trkpt lat="44.88259" lon="-0.61117">
        <ele>22.73</ele>
        <time>2025-04-16T08:35:43Z</time>
      </trkpt>
      <trkpt lat="44.8826" lon="-0.61116">
        <ele>22.73</ele>
        <time>2025-04-16T08:35:44Z</time>
      </trkpt>
      <trkpt lat="44.88261" lon="-0.61115">
        <ele>23.21</ele>
        <time>2025-04-16T08:35:45Z</time>
      </trkpt>
      <trkpt lat="44.88263" lon="-0.61114">
        <ele>22.73</ele>
        <time>2025-04-16T08:35:46Z</time>
      </trkpt>
      <trkpt lat="44.88264" lon="-0.61113">
        <ele>23.21</ele>
        <time>2025-04-16T08:35:47Z</time>
      </trkpt>
      <trkpt lat="44.88265" lon="-0.61112">
        <ele>23.21</ele>
        <time>2025-04-16T08:35:48Z</time>
      </trkpt>
      <trkpt lat="44.88266" lon="-0.61111">
        <ele>23.21</ele>
        <time>2025-04-16T08:35:49Z</time>
      </trkpt>
      <trkpt lat="44.88268" lon="-0.61111">
        <ele>22.73</ele>
        <time>2025-04-16T08:35:50Z</time>
      </trkpt>
      <trkpt lat="44.8827" lon="-0.61109">
        <ele>23.21</ele>
        <time>2025-04-16T08:36:04Z</time>
      </trkpt>
      <trkpt lat="44.88272" lon="-0.61109">
        <ele>22.73</ele>
        <time>2025-04-16T08:36:32Z</time>
      </trkpt>
      <trkpt lat="44.88277" lon="-0.61111">
        <ele>21.77</ele>
        <time>2025-04-16T08:37:02Z</time>
      </trkpt>
      <trkpt lat="44.88278" lon="-0.61108">
        <ele>22.73</ele>
        <time>2025-04-16T08:37:07Z</time>
      </trkpt>
      <trkpt lat="44.88279" lon="-0.61107">
        <ele>22.25</ele>
        <time>2025-04-16T08:37:08Z</time>
      </trkpt>
      <trkpt lat="44.88281" lon="-0.61105">
        <ele>21.77</ele>
        <time>2025-04-16T08:37:09Z</time>
      </trkpt>
      <trkpt lat="44.88282" lon="-0.61104">
        <ele>21.77</ele>
        <time>2025-04-16T08:37:10Z</time>
      </trkpt>
      <trkpt lat="44.88283" lon="-0.61103">
        <ele>22.25</ele>
        <time>2025-04-16T08:37:11Z</time>
      </trkpt>
      <trkpt lat="44.88312" lon="-0.61073">
        <ele>20.81</ele>
        <time>2025-04-16T08:37:22Z</time>
      </trkpt>
      <trkpt lat="44.8833" lon="-0.61056">
        <ele>20.81</ele>
        <time>2025-04-16T08:37:34Z</time>
      </trkpt>
      <trkpt lat="44.88342" lon="-0.61052">
        <ele>20.32</ele>
        <time>2025-04-16T08:37:52Z</time>
      </trkpt>
      <trkpt lat="44.88378" lon="-0.61038">
        <ele>19.84</ele>
        <time>2025-04-16T08:38:05Z</time>
      </trkpt>
      <trkpt lat="44.88386" lon="-0.61042">
        <ele>19.84</ele>
        <time>2025-04-16T08:38:16Z</time>
      </trkpt>
      <trkpt lat="44.8839" lon="-0.61042">
        <ele>18.88</ele>
        <time>2025-04-16T08:38:31Z</time>
      </trkpt>
      <trkpt lat="44.8839" lon="-0.61042">
        <ele>18.88</ele>
        <time>2025-04-16T08:38:56Z</time>
      </trkpt>
      <trkpt lat="44.88391" lon="-0.61042">
        <ele>18.88</ele>
        <time>2025-04-16T08:39:17Z</time>
      </trkpt>
      <trkpt lat="44.88392" lon="-0.61041">
        <ele>19.84</ele>
        <time>2025-04-16T08:39:44Z</time>
      </trkpt>
      <trkpt lat="44.88394" lon="-0.61038">
        <ele>19.36</ele>
        <time>2025-04-16T08:39:50Z</time>
      </trkpt>
      <trkpt lat="44.88396" lon="-0.61038">
        <ele>18.88</ele>
        <time>2025-04-16T08:39:51Z</time>
      </trkpt>
      <trkpt lat="44.88397" lon="-0.61038">
        <ele>19.36</ele>
        <time>2025-04-16T08:39:52Z</time>
      </trkpt>
      <trkpt lat="44.88399" lon="-0.61039">
        <ele>19.36</ele>
        <time>2025-04-16T08:39:53Z</time>
      </trkpt>
      <trkpt lat="44.884" lon="-0.61041">
        <ele>18.88</ele>
        <time>2025-04-16T08:39:54Z</time>
      </trkpt>
      <trkpt lat="44.88438" lon="-0.61068">
        <ele>18.4</ele>
        <time>2025-04-16T08:40:09Z</time>
      </trkpt>
      <trkpt lat="44.88476" lon="-0.61096">
        <ele>17.44</ele>
        <time>2025-04-16T08:40:21Z</time>
      </trkpt>
      <trkpt lat="44.88502" lon="-0.61118">
        <ele>16.96</ele>
        <time>2025-04-16T08:40:35Z</time>
      </trkpt>
      <trkpt lat="44.88506" lon="-0.61118">
        <ele>16.96</ele>
        <time>2025-04-16T08:41:04Z</time>
      </trkpt>
      <trkpt lat="44.88507" lon="-0.61117">
        <ele>16.96</ele>
        <time>2025-04-16T08:41:32Z</time>
      </trkpt>
      <trkpt lat="44.88504" lon="-0.61113">
        <ele>17.44</ele>
        <time>2025-04-16T08:41:35Z</time>
      </trkpt>
      <trkpt lat="44.88502" lon="-0.61112">
        <ele>16.96</ele>
        <time>2025-04-16T08:41:36Z</time>
      </trkpt>
      <trkpt lat="44.88501" lon="-0.6111">
        <ele>16.96</ele>
        <time>2025-04-16T08:41:37Z</time>
      </trkpt>
      <trkpt lat="44.88499" lon="-0.61108">
        <ele>16.96</ele>
        <time>2025-04-16T08:41:38Z</time>
      </trkpt>
      <trkpt lat="44.88497" lon="-0.61106">
        <ele>16.96</ele>
        <time>2025-04-16T08:41:39Z</time>
      </trkpt>
      <trkpt lat="44.88495" lon="-0.61105">
        <ele>16.96</ele>
        <time>2025-04-16T08:41:40Z</time>
      </trkpt>
      <trkpt lat="44.88492" lon="-0.61103">
        <ele>16.96</ele>
        <time>2025-04-16T08:41:41Z</time>
      </trkpt>
      <trkpt lat="44.8849" lon="-0.61101">
        <ele>16.96</ele>
        <time>2025-04-16T08:41:42Z</time>
      </trkpt>
      <trkpt lat="44.88487" lon="-0.61099">
        <ele>16.48</ele>
        <time>2025-04-16T08:41:43Z</time>
      </trkpt>
      <trkpt lat="44.88471" lon="-0.61085">
        <ele>16.96</ele>
        <time>2025-04-16T08:41:52Z</time>
      </trkpt>
      <trkpt lat="44.88439" lon="-0.61063">
        <ele>17.44</ele>
        <time>2025-04-16T08:42:06Z</time>
      </trkpt>
      <trkpt lat="44.88398" lon="-0.61042">
        <ele>18.88</ele>
        <time>2025-04-16T08:42:22Z</time>
      </trkpt>
      <trkpt lat="44.88364" lon="-0.61042">
        <ele>19.36</ele>
        <time>2025-04-16T08:42:35Z</time>
      </trkpt>
      <trkpt lat="44.88336" lon="-0.61055">
        <ele>19.84</ele>
        <time>2025-04-16T08:42:45Z</time>
      </trkpt>
      <trkpt lat="44.88333" lon="-0.61056">
        <ele>19.84</ele>
        <time>2025-04-16T08:42:46Z</time>
      </trkpt>
      <trkpt lat="44.88331" lon="-0.61057">
        <ele>19.36</ele>
        <time>2025-04-16T08:42:47Z</time>
      </trkpt>
      <trkpt lat="44.88329" lon="-0.61059">
        <ele>19.84</ele>
        <time>2025-04-16T08:42:48Z</time>
      </trkpt>
      <trkpt lat="44.88326" lon="-0.6106">
        <ele>19.36</ele>
        <time>2025-04-16T08:42:49Z</time>
      </trkpt>
      <trkpt lat="44.88322" lon="-0.61061">
        <ele>19.84</ele>
        <time>2025-04-16T08:42:50Z</time>
      </trkpt>
      <trkpt lat="44.88318" lon="-0.61063">
        <ele>19.84</ele>
        <time>2025-04-16T08:42:51Z</time>
      </trkpt>
      <trkpt lat="44.88316" lon="-0.61065">
        <ele>19.84</ele>
        <time>2025-04-16T08:42:52Z</time>
      </trkpt>
      <trkpt lat="44.88313" lon="-0.61068">
        <ele>19.84</ele>
        <time>2025-04-16T08:42:53Z</time>
      </trkpt>
      <trkpt lat="44.8831" lon="-0.61071">
        <ele>19.84</ele>
        <time>2025-04-16T08:42:54Z</time>
      </trkpt>
      <trkpt lat="44.88308" lon="-0.61074">
        <ele>19.84</ele>
        <time>2025-04-16T08:42:55Z</time>
      </trkpt>
      <trkpt lat="44.8828" lon="-0.611">
        <ele>20.81</ele>
        <time>2025-04-16T08:43:07Z</time>
      </trkpt>
      <trkpt lat="44.8824" lon="-0.61131">
        <ele>21.77</ele>
        <time>2025-04-16T08:43:25Z</time>
      </trkpt>
      <trkpt lat="44.88224" lon="-0.61139">
        <ele>21.77</ele>
        <time>2025-04-16T08:43:39Z</time>
      </trkpt>
      <trkpt lat="44.88198" lon="-0.61155">
        <ele>22.73</ele>
        <time>2025-04-16T08:43:52Z</time>
      </trkpt>
      <trkpt lat="44.8816" lon="-0.61171">
        <ele>22.73</ele>
        <time>2025-04-16T08:44:07Z</time>
      </trkpt>
      <trkpt lat="44.88128" lon="-0.61181">
        <ele>22.73</ele>
        <time>2025-04-16T08:44:20Z</time>
      </trkpt>
      <trkpt lat="44.881" lon="-0.6119">
        <ele>22.73</ele>
        <time>2025-04-16T08:44:32Z</time>
      </trkpt>
      <trkpt lat="44.88095" lon="-0.61193">
        <ele>23.21</ele>
        <time>2025-04-16T08:44:36Z</time>
      </trkpt>
      <trkpt lat="44.8809" lon="-0.61199">
        <ele>23.69</ele>
        <time>2025-04-16T08:44:41Z</time>
      </trkpt>
      <trkpt lat="44.88089" lon="-0.61199">
        <ele>23.21</ele>
        <time>2025-04-16T08:44:42Z</time>
      </trkpt>
      <trkpt lat="44.88088" lon="-0.61197">
        <ele>23.69</ele>
        <time>2025-04-16T08:44:43Z</time>
      </trkpt>
      <trkpt lat="44.88079" lon="-0.6119">
        <ele>23.69</ele>
        <time>2025-04-16T08:44:47Z</time>
      </trkpt>
      <trkpt lat="44.88042" lon="-0.61203">
        <ele>23.21</ele>
        <time>2025-04-16T08:44:59Z</time>
      </trkpt>
      <trkpt lat="44.88004" lon="-0.61227">
        <ele>23.69</ele>
        <time>2025-04-16T08:45:12Z</time>
      </trkpt>
      <trkpt lat="44.87973" lon="-0.61249">
        <ele>24.17</ele>
        <time>2025-04-16T08:45:25Z</time>
      </trkpt>
      <trkpt lat="44.87958" lon="-0.61263">
        <ele>24.17</ele>
        <time>2025-04-16T08:45:36Z</time>
      </trkpt>
      <trkpt lat="44.87953" lon="-0.61263">
        <ele>24.17</ele>
        <time>2025-04-16T08:46:11Z</time>
      </trkpt>
      <trkpt lat="44.87949" lon="-0.61267">
        <ele>24.17</ele>
        <time>2025-04-16T08:46:44Z</time>
      </trkpt>
      <trkpt lat="44.87913" lon="-0.61303">
        <ele>23.69</ele>
        <time>2025-04-16T08:47:00Z</time>
      </trkpt>
      <trkpt lat="44.87888" lon="-0.61332">
        <ele>24.17</ele>
        <time>2025-04-16T08:47:11Z</time>
      </trkpt>
      <trkpt lat="44.87832" lon="-0.61395">
        <ele>22.73</ele>
        <time>2025-04-16T08:47:30Z</time>
      </trkpt>
      <trkpt lat="44.8781" lon="-0.61415">
        <ele>21.29</ele>
        <time>2025-04-16T08:47:40Z</time>
      </trkpt>
      <trkpt lat="44.87809" lon="-0.61414">
        <ele>21.77</ele>
        <time>2025-04-16T08:47:41Z</time>
      </trkpt>
      <trkpt lat="44.87808" lon="-0.61413">
        <ele>21.29</ele>
        <time>2025-04-16T08:47:42Z</time>
      </trkpt>
      <trkpt lat="44.87806" lon="-0.61411">
        <ele>21.29</ele>
        <time>2025-04-16T08:47:43Z</time>
      </trkpt>
      <trkpt lat="44.87805" lon="-0.61409">
        <ele>20.81</ele>
        <time>2025-04-16T08:47:44Z</time>
      </trkpt>
      <trkpt lat="44.87804" lon="-0.61407">
        <ele>21.77</ele>
        <time>2025-04-16T08:47:45Z</time>
      </trkpt>
      <trkpt lat="44.87803" lon="-0.61405">
        <ele>21.29</ele>
        <time>2025-04-16T08:47:46Z</time>
      </trkpt>
      <trkpt lat="44.87802" lon="-0.61403">
        <ele>21.29</ele>
        <time>2025-04-16T08:47:47Z</time>
      </trkpt>
      <trkpt lat="44.87799" lon="-0.61401">
        <ele>21.29</ele>
        <time>2025-04-16T08:47:48Z</time>
      </trkpt>
      <trkpt lat="44.87797" lon="-0.61398">
        <ele>20.81</ele>
        <time>2025-04-16T08:47:49Z</time>
      </trkpt>
      <trkpt lat="44.87795" lon="-0.61394">
        <ele>21.29</ele>
        <time>2025-04-16T08:47:50Z</time>
      </trkpt>
      <trkpt lat="44.87794" lon="-0.6139">
        <ele>21.29</ele>
        <time>2025-04-16T08:47:51Z</time>
      </trkpt>
      <trkpt lat="44.87792" lon="-0.61385">
        <ele>20.32</ele>
        <time>2025-04-16T08:47:52Z</time>
      </trkpt>
      <trkpt lat="44.87778" lon="-0.61337">
        <ele>18.88</ele>
        <time>2025-04-16T08:48:01Z</time>
      </trkpt>
      <trkpt lat="44.87766" lon="-0.61313">
        <ele>18.4</ele>
        <time>2025-04-16T08:48:12Z</time>
      </trkpt>
      <trkpt lat="44.87767" lon="-0.61312">
        <ele>18.88</ele>
        <time>2025-04-16T08:48:22Z</time>
      </trkpt>
      <trkpt lat="44.87769" lon="-0.61312">
        <ele>18.88</ele>
        <time>2025-04-16T08:48:23Z</time>
      </trkpt>
      <trkpt lat="44.87772" lon="-0.6132">
        <ele>18.88</ele>
        <time>2025-04-16T08:48:28Z</time>
      </trkpt>
      <trkpt lat="44.87772" lon="-0.61322">
        <ele>18.88</ele>
        <time>2025-04-16T08:48:29Z</time>
      </trkpt>
      <trkpt lat="44.87774" lon="-0.61329">
        <ele>18.88</ele>
        <time>2025-04-16T08:48:33Z</time>
      </trkpt>
      <trkpt lat="44.87774" lon="-0.61338">
        <ele>18.88</ele>
        <time>2025-04-16T08:48:46Z</time>
      </trkpt>
      <trkpt lat="44.87768" lon="-0.61339">
        <ele>18.88</ele>
        <time>2025-04-16T08:49:15Z</time>
      </trkpt>
      <trkpt lat="44.87772" lon="-0.61339">
        <ele>18.4</ele>
        <time>2025-04-16T08:49:50Z</time>
      </trkpt>
      <trkpt lat="44.87771" lon="-0.61339">
        <ele>19.36</ele>
        <time>2025-04-16T08:50:20Z</time>
      </trkpt>
      <trkpt lat="44.87776" lon="-0.61333">
        <ele>19.36</ele>
        <time>2025-04-16T08:50:55Z</time>
      </trkpt>
      <trkpt lat="44.87773" lon="-0.61339">
        <ele>19.84</ele>
        <time>2025-04-16T08:51:27Z</time>
      </trkpt>
      <trkpt lat="44.87768" lon="-0.61341">
        <ele>19.36</ele>
        <time>2025-04-16T08:51:55Z</time>
      </trkpt>
      <trkpt lat="44.87771" lon="-0.6134">
        <ele>19.84</ele>
        <time>2025-04-16T08:52:21Z</time>
      </trkpt>
      <trkpt lat="44.87773" lon="-0.61332">
        <ele>19.84</ele>
        <time>2025-04-16T08:52:28Z</time>
      </trkpt>
      <trkpt lat="44.87773" lon="-0.61324">
        <ele>19.36</ele>
        <time>2025-04-16T08:52:44Z</time>
      </trkpt>
      <trkpt lat="44.87774" lon="-0.61321">
        <ele>19.84</ele>
        <time>2025-04-16T08:53:12Z</time>
      </trkpt>
      <trkpt lat="44.87775" lon="-0.61318">
        <ele>19.84</ele>
        <time>2025-04-16T08:53:49Z</time>
      </trkpt>
      <trkpt lat="44.87774" lon="-0.61318">
        <ele>18.88</ele>
        <time>2025-04-16T08:54:08Z</time>
      </trkpt>
      <trkpt lat="44.87773" lon="-0.61317">
        <ele>19.36</ele>
        <time>2025-04-16T08:54:09Z</time>
      </trkpt>
      <trkpt lat="44.87771" lon="-0.61316">
        <ele>19.36</ele>
        <time>2025-04-16T08:54:10Z</time>
      </trkpt>
      <trkpt lat="44.87769" lon="-0.61315">
        <ele>19.36</ele>
        <time>2025-04-16T08:54:11Z</time>
      </trkpt>
      <trkpt lat="44.87767" lon="-0.61314">
        <ele>19.36</ele>
        <time>2025-04-16T08:54:12Z</time>
      </trkpt>
      <trkpt lat="44.87765" lon="-0.61314">
        <ele>18.88</ele>
        <time>2025-04-16T08:54:13Z</time>
      </trkpt>
      <trkpt lat="44.87763" lon="-0.61314">
        <ele>18.88</ele>
        <time>2025-04-16T08:54:14Z</time>
      </trkpt>
      <trkpt lat="44.87761" lon="-0.61312">
        <ele>18.88</ele>
        <time>2025-04-16T08:54:15Z</time>
      </trkpt>
      <trkpt lat="44.8776" lon="-0.61309">
        <ele>18.88</ele>
        <time>2025-04-16T08:54:16Z</time>
      </trkpt>
      <trkpt lat="44.87739" lon="-0.61248">
        <ele>17.44</ele>
        <time>2025-04-16T08:54:32Z</time>
      </trkpt>
      <trkpt lat="44.87732" lon="-0.61179">
        <ele>16.96</ele>
        <time>2025-04-16T08:54:46Z</time>
      </trkpt>
      <trkpt lat="44.87732" lon="-0.61104">
        <ele>16</ele>
        <time>2025-04-16T08:55:02Z</time>
      </trkpt>
      <trkpt lat="44.87734" lon="-0.61049">
        <ele>16.48</ele>
        <time>2025-04-16T08:55:15Z</time>
      </trkpt>
      <trkpt lat="44.87732" lon="-0.61045">
        <ele>16.96</ele>
        <time>2025-04-16T08:55:16Z</time>
      </trkpt>
      <trkpt lat="44.87731" lon="-0.61042">
        <ele>16.96</ele>
        <time>2025-04-16T08:55:17Z</time>
      </trkpt>
      <trkpt lat="44.87707" lon="-0.60998">
        <ele>16.48</ele>
        <time>2025-04-16T08:55:32Z</time>
      </trkpt>
      <trkpt lat="44.87698" lon="-0.60991">
        <ele>16</ele>
        <time>2025-04-16T08:55:46Z</time>
      </trkpt>
      <trkpt lat="44.87697" lon="-0.60988">
        <ele>15.52</ele>
        <time>2025-04-16T08:55:47Z</time>
      </trkpt>
      <trkpt lat="44.87698" lon="-0.60986">
        <ele>15.52</ele>
        <time>2025-04-16T08:55:48Z</time>
      </trkpt>
      <trkpt lat="44.87698" lon="-0.60985">
        <ele>15.52</ele>
        <time>2025-04-16T08:55:49Z</time>
      </trkpt>
      <trkpt lat="44.87699" lon="-0.60983">
        <ele>16</ele>
        <time>2025-04-16T08:55:50Z</time>
      </trkpt>
      <trkpt lat="44.877" lon="-0.60979">
        <ele>15.52</ele>
        <time>2025-04-16T08:56:03Z</time>
      </trkpt>
      <trkpt lat="44.87701" lon="-0.60981">
        <ele>15.04</ele>
        <time>2025-04-16T08:56:19Z</time>
      </trkpt>
      <trkpt lat="44.87704" lon="-0.60986">
        <ele>15.52</ele>
        <time>2025-04-16T08:56:56Z</time>
      </trkpt>
      <trkpt lat="44.87704" lon="-0.60985">
        <ele>15.04</ele>
        <time>2025-04-16T08:57:28Z</time>
      </trkpt>
      <trkpt lat="44.8771" lon="-0.60984">
        <ele>15.04</ele>
        <time>2025-04-16T08:58:00Z</time>
      </trkpt>
      <trkpt lat="44.87712" lon="-0.60984">
        <ele>15.52</ele>
        <time>2025-04-16T08:58:24Z</time>
      </trkpt>
      <trkpt lat="44.8771" lon="-0.60981">
        <ele>15.52</ele>
        <time>2025-04-16T08:58:57Z</time>
      </trkpt>
      <trkpt lat="44.87708" lon="-0.60983">
        <ele>15.52</ele>
        <time>2025-04-16T08:59:30Z</time>
      </trkpt>
      <trkpt lat="44.87707" lon="-0.60981">
        <ele>15.04</ele>
        <time>2025-04-16T08:59:59Z</time>
      </trkpt>
      <trkpt lat="44.87704" lon="-0.60986">
        <ele>15.04</ele>
        <time>2025-04-16T09:00:29Z</time>
      </trkpt>
      <trkpt lat="44.87704" lon="-0.60982">
        <ele>15.04</ele>
        <time>2025-04-16T09:01:02Z</time>
      </trkpt>
      <trkpt lat="44.87704" lon="-0.60986">
        <ele>15.52</ele>
        <time>2025-04-16T09:01:31Z</time>
      </trkpt>
      <trkpt lat="44.87701" lon="-0.60983">
        <ele>15.04</ele>
        <time>2025-04-16T09:02:05Z</time>
      </trkpt>
      <trkpt lat="44.87702" lon="-0.6098">
        <ele>15.52</ele>
        <time>2025-04-16T09:02:21Z</time>
      </trkpt>
      <trkpt lat="44.87704" lon="-0.60965">
        <ele>15.04</ele>
        <time>2025-04-16T09:02:29Z</time>
      </trkpt>
      <trkpt lat="44.87704" lon="-0.60962">
        <ele>15.04</ele>
        <time>2025-04-16T09:02:30Z</time>
      </trkpt>
      <trkpt lat="44.87702" lon="-0.60958">
        <ele>15.04</ele>
        <time>2025-04-16T09:02:31Z</time>
      </trkpt>
      <trkpt lat="44.87693" lon="-0.60909">
        <ele>14.56</ele>
        <time>2025-04-16T09:02:46Z</time>
      </trkpt>
      <trkpt lat="44.87676" lon="-0.60855">
        <ele>14.08</ele>
        <time>2025-04-16T09:03:04Z</time>
      </trkpt>
      <trkpt lat="44.87641" lon="-0.60791">
        <ele>13.6</ele>
        <time>2025-04-16T09:03:23Z</time>
      </trkpt>
      <trkpt lat="44.87627" lon="-0.60772">
        <ele>13.12</ele>
        <time>2025-04-16T09:03:35Z</time>
      </trkpt>
      <trkpt lat="44.87627" lon="-0.6077">
        <ele>13.6</ele>
        <time>2025-04-16T09:04:11Z</time>
      </trkpt>
      <trkpt lat="44.87623" lon="-0.60767">
        <ele>13.12</ele>
        <time>2025-04-16T09:04:20Z</time>
      </trkpt>
      <trkpt lat="44.87622" lon="-0.60767">
        <ele>12.63</ele>
        <time>2025-04-16T09:04:21Z</time>
      </trkpt>
      <trkpt lat="44.87618" lon="-0.60761">
        <ele>13.12</ele>
        <time>2025-04-16T09:04:34Z</time>
      </trkpt>
      <trkpt lat="44.87608" lon="-0.60749">
        <ele>13.12</ele>
        <time>2025-04-16T09:04:49Z</time>
      </trkpt>
      <trkpt lat="44.87568" lon="-0.60699">
        <ele>13.6</ele>
        <time>2025-04-16T09:05:07Z</time>
      </trkpt>
      <trkpt lat="44.87539" lon="-0.60656">
        <ele>12.63</ele>
        <time>2025-04-16T09:05:23Z</time>
      </trkpt>
      <trkpt lat="44.87515" lon="-0.60596">
        <ele>12.15</ele>
        <time>2025-04-16T09:05:41Z</time>
      </trkpt>
      <trkpt lat="44.87502" lon="-0.60532">
        <ele>13.12</ele>
        <time>2025-04-16T09:06:00Z</time>
      </trkpt>
      <trkpt lat="44.87493" lon="-0.605">
        <ele>12.63</ele>
        <time>2025-04-16T09:06:11Z</time>
      </trkpt>
      <trkpt lat="44.87493" lon="-0.60497">
        <ele>12.63</ele>
        <time>2025-04-16T09:06:12Z</time>
      </trkpt>
      <trkpt lat="44.87493" lon="-0.60494">
        <ele>12.63</ele>
        <time>2025-04-16T09:06:13Z</time>
      </trkpt>
      <trkpt lat="44.87492" lon="-0.60442">
        <ele>12.15</ele>
        <time>2025-04-16T09:06:28Z</time>
      </trkpt>
      <trkpt lat="44.87493" lon="-0.6044">
        <ele>12.15</ele>
        <time>2025-04-16T09:06:29Z</time>
      </trkpt>
      <trkpt lat="44.87494" lon="-0.60437">
        <ele>12.15</ele>
        <time>2025-04-16T09:06:30Z</time>
      </trkpt>
      <trkpt lat="44.87495" lon="-0.60435">
        <ele>12.63</ele>
        <time>2025-04-16T09:06:31Z</time>
      </trkpt>
      <trkpt lat="44.87496" lon="-0.60433">
        <ele>12.63</ele>
        <time>2025-04-16T09:06:32Z</time>
      </trkpt>
      <trkpt lat="44.87497" lon="-0.60431">
        <ele>12.63</ele>
        <time>2025-04-16T09:06:33Z</time>
      </trkpt>
      <trkpt lat="44.87499" lon="-0.60429">
        <ele>12.15</ele>
        <time>2025-04-16T09:06:34Z</time>
      </trkpt>
      <trkpt lat="44.875" lon="-0.60426">
        <ele>11.67</ele>
        <time>2025-04-16T09:06:35Z</time>
      </trkpt>
      <trkpt lat="44.875" lon="-0.60424">
        <ele>11.67</ele>
        <time>2025-04-16T09:06:36Z</time>
      </trkpt>
      <trkpt lat="44.875" lon="-0.60421">
        <ele>12.15</ele>
        <time>2025-04-16T09:06:37Z</time>
      </trkpt>
      <trkpt lat="44.87499" lon="-0.6042">
        <ele>12.15</ele>
        <time>2025-04-16T09:06:38Z</time>
      </trkpt>
      <trkpt lat="44.87498" lon="-0.60418">
        <ele>12.15</ele>
        <time>2025-04-16T09:06:39Z</time>
      </trkpt>
      <trkpt lat="44.87492" lon="-0.6038">
        <ele>11.19</ele>
        <time>2025-04-16T09:06:51Z</time>
      </trkpt>
      <trkpt lat="44.87484" lon="-0.60314">
        <ele>11.67</ele>
        <time>2025-04-16T09:07:09Z</time>
      </trkpt>
      <trkpt lat="44.87473" lon="-0.60253">
        <ele>11.19</ele>
        <time>2025-04-16T09:07:24Z</time>
      </trkpt>
      <trkpt lat="44.87467" lon="-0.60202">
        <ele>11.19</ele>
        <time>2025-04-16T09:07:40Z</time>
      </trkpt>
      <trkpt lat="44.87464" lon="-0.60189">
        <ele>12.15</ele>
        <time>2025-04-16T09:07:45Z</time>
      </trkpt>
      <trkpt lat="44.8746" lon="-0.60142">
        <ele>12.15</ele>
        <time>2025-04-16T09:08:04Z</time>
      </trkpt>
      <trkpt lat="44.87442" lon="-0.60098">
        <ele>11.67</ele>
        <time>2025-04-16T09:08:18Z</time>
      </trkpt>
      <trkpt lat="44.87427" lon="-0.60073">
        <ele>11.19</ele>
        <time>2025-04-16T09:08:32Z</time>
      </trkpt>
      <trkpt lat="44.87413" lon="-0.60055">
        <ele>11.19</ele>
        <time>2025-04-16T09:08:43Z</time>
      </trkpt>
      <trkpt lat="44.87414" lon="-0.60049">
        <ele>11.67</ele>
        <time>2025-04-16T09:08:52Z</time>
      </trkpt>
      <trkpt lat="44.87414" lon="-0.60047">
        <ele>11.67</ele>
        <time>2025-04-16T09:08:53Z</time>
      </trkpt>
      <trkpt lat="44.87416" lon="-0.6004">
        <ele>11.19</ele>
        <time>2025-04-16T09:08:56Z</time>
      </trkpt>
      <trkpt lat="44.87417" lon="-0.60038">
        <ele>11.19</ele>
        <time>2025-04-16T09:08:57Z</time>
      </trkpt>
      <trkpt lat="44.87425" lon="-0.60034">
        <ele>11.67</ele>
        <time>2025-04-16T09:09:02Z</time>
      </trkpt>
      <trkpt lat="44.87456" lon="-0.60041">
        <ele>13.12</ele>
        <time>2025-04-16T09:09:15Z</time>
      </trkpt>
      <trkpt lat="44.87478" lon="-0.60026">
        <ele>14.56</ele>
        <time>2025-04-16T09:09:28Z</time>
      </trkpt>
      <trkpt lat="44.87482" lon="-0.60022">
        <ele>14.56</ele>
        <time>2025-04-16T09:09:43Z</time>
      </trkpt>
      <trkpt lat="44.87483" lon="-0.60023">
        <ele>14.08</ele>
        <time>2025-04-16T09:10:11Z</time>
      </trkpt>
      <trkpt lat="44.87482" lon="-0.60023">
        <ele>14.56</ele>
        <time>2025-04-16T09:10:30Z</time>
      </trkpt>
      <trkpt lat="44.87481" lon="-0.60023">
        <ele>14.08</ele>
        <time>2025-04-16T09:11:08Z</time>
      </trkpt>
      <trkpt lat="44.87481" lon="-0.60023">
        <ele>13.6</ele>
        <time>2025-04-16T09:11:43Z</time>
      </trkpt>
      <trkpt lat="44.87489" lon="-0.60021">
        <ele>14.08</ele>
        <time>2025-04-16T09:12:01Z</time>
      </trkpt>
      <trkpt lat="44.87508" lon="-0.59995">
        <ele>14.56</ele>
        <time>2025-04-16T09:12:12Z</time>
      </trkpt>
      <trkpt lat="44.87553" lon="-0.59942">
        <ele>16.96</ele>
        <time>2025-04-16T09:12:31Z</time>
      </trkpt>
      <trkpt lat="44.87589" lon="-0.59905">
        <ele>18.4</ele>
        <time>2025-04-16T09:12:49Z</time>
      </trkpt>
      <trkpt lat="44.87639" lon="-0.59877">
        <ele>18.88</ele>
        <time>2025-04-16T09:13:07Z</time>
      </trkpt>
      <trkpt lat="44.87672" lon="-0.59842">
        <ele>18.88</ele>
        <time>2025-04-16T09:13:20Z</time>
      </trkpt>
      <trkpt lat="44.87724" lon="-0.59803">
        <ele>17.44</ele>
        <time>2025-04-16T09:13:34Z</time>
      </trkpt>
      <trkpt lat="44.87761" lon="-0.59764">
        <ele>16.48</ele>
        <time>2025-04-16T09:13:49Z</time>
      </trkpt>
      <trkpt lat="44.8776" lon="-0.59762">
        <ele>16.96</ele>
        <time>2025-04-16T09:14:09Z</time>
      </trkpt>
      <trkpt lat="44.8776" lon="-0.59765">
        <ele>17.44</ele>
        <time>2025-04-16T09:14:39Z</time>
      </trkpt>
      <trkpt lat="44.87763" lon="-0.59754">
        <ele>17.44</ele>
        <time>2025-04-16T09:15:04Z</time>
      </trkpt>
      <trkpt lat="44.87762" lon="-0.59747">
        <ele>16.96</ele>
        <time>2025-04-16T09:15:07Z</time>
      </trkpt>
      <trkpt lat="44.87761" lon="-0.59745">
        <ele>16.96</ele>
        <time>2025-04-16T09:15:08Z</time>
      </trkpt>
      <trkpt lat="44.87759" lon="-0.59743">
        <ele>16.96</ele>
        <time>2025-04-16T09:15:09Z</time>
      </trkpt>
      <trkpt lat="44.87758" lon="-0.5974">
        <ele>17.92</ele>
        <time>2025-04-16T09:15:21Z</time>
      </trkpt>
      <trkpt lat="44.87761" lon="-0.5974">
        <ele>17.44</ele>
        <time>2025-04-16T09:15:59Z</time>
      </trkpt>
      <trkpt lat="44.8776" lon="-0.59737">
        <ele>17.44</ele>
        <time>2025-04-16T09:16:29Z</time>
      </trkpt>
      <trkpt lat="44.87757" lon="-0.59737">
        <ele>16.96</ele>
        <time>2025-04-16T09:17:12Z</time>
      </trkpt>
      <trkpt lat="44.87757" lon="-0.59736">
        <ele>16.96</ele>
        <time>2025-04-16T09:17:15Z</time>
      </trkpt>
      <trkpt lat="44.87756" lon="-0.59734">
        <ele>16.96</ele>
        <time>2025-04-16T09:17:16Z</time>
      </trkpt>
      <trkpt lat="44.87756" lon="-0.59733">
        <ele>16.96</ele>
        <time>2025-04-16T09:17:17Z</time>
      </trkpt>
      <trkpt lat="44.87755" lon="-0.59731">
        <ele>16.96</ele>
        <time>2025-04-16T09:17:18Z</time>
      </trkpt>
      <trkpt lat="44.87754" lon="-0.59729">
        <ele>17.44</ele>
        <time>2025-04-16T09:17:19Z</time>
      </trkpt>
      <trkpt lat="44.87753" lon="-0.59726">
        <ele>17.44</ele>
        <time>2025-04-16T09:17:20Z</time>
      </trkpt>
      <trkpt lat="44.87752" lon="-0.59724">
        <ele>17.44</ele>
        <time>2025-04-16T09:17:21Z</time>
      </trkpt>
      <trkpt lat="44.87752" lon="-0.59721">
        <ele>16.48</ele>
        <time>2025-04-16T09:17:22Z</time>
      </trkpt>
      <trkpt lat="44.87751" lon="-0.59718">
        <ele>17.44</ele>
        <time>2025-04-16T09:17:23Z</time>
      </trkpt>
      <trkpt lat="44.8775" lon="-0.59715">
        <ele>17.44</ele>
        <time>2025-04-16T09:17:24Z</time>
      </trkpt>
      <trkpt lat="44.8775" lon="-0.59711">
        <ele>17.44</ele>
        <time>2025-04-16T09:17:25Z</time>
      </trkpt>
      <trkpt lat="44.87734" lon="-0.59653">
        <ele>17.92</ele>
        <time>2025-04-16T09:17:39Z</time>
      </trkpt>
      <trkpt lat="44.87731" lon="-0.59576">
        <ele>17.44</ele>
        <time>2025-04-16T09:17:56Z</time>
      </trkpt>
      <trkpt lat="44.87749" lon="-0.59512">
        <ele>16.48</ele>
        <time>2025-04-16T09:18:12Z</time>
      </trkpt>
      <trkpt lat="44.87779" lon="-0.59405">
        <ele>14.56</ele>
        <time>2025-04-16T09:18:28Z</time>
      </trkpt>
      <trkpt lat="44.87801" lon="-0.59322">
        <ele>11.67</ele>
        <time>2025-04-16T09:18:37Z</time>
      </trkpt>
      <trkpt lat="44.87824" lon="-0.59242">
        <ele>8.31</ele>
        <time>2025-04-16T09:18:46Z</time>
      </trkpt>
      <trkpt lat="44.87828" lon="-0.59229">
        <ele>7.83</ele>
        <time>2025-04-16T09:18:48Z</time>
      </trkpt>
      <trkpt lat="44.87835" lon="-0.59205">
        <ele>7.83</ele>
        <time>2025-04-16T09:18:55Z</time>
      </trkpt>
      <trkpt lat="44.87842" lon="-0.59193">
        <ele>7.35</ele>
        <time>2025-04-16T09:19:03Z</time>
      </trkpt>
      <trkpt lat="44.87864" lon="-0.59171">
        <ele>6.39</ele>
        <time>2025-04-16T09:19:13Z</time>
      </trkpt>
      <trkpt lat="44.87864" lon="-0.59169">
        <ele>5.91</ele>
        <time>2025-04-16T09:19:25Z</time>
      </trkpt>
      <trkpt lat="44.87864" lon="-0.5917">
        <ele>5.42</ele>
        <time>2025-04-16T09:19:53Z</time>
      </trkpt>
      <trkpt lat="44.87863" lon="-0.59169">
        <ele>6.39</ele>
        <time>2025-04-16T09:20:25Z</time>
      </trkpt>
      <trkpt lat="44.87865" lon="-0.5917">
        <ele>5.91</ele>
        <time>2025-04-16T09:20:55Z</time>
      </trkpt>
      <trkpt lat="44.87864" lon="-0.5917">
        <ele>5.91</ele>
        <time>2025-04-16T09:21:30Z</time>
      </trkpt>
      <trkpt lat="44.87865" lon="-0.5917">
        <ele>2.54</ele>
        <time>2025-04-16T09:21:56Z</time>
      </trkpt>
      <trkpt lat="44.87865" lon="-0.5917">
        <ele>9.75</ele>
        <time>2025-04-16T09:21:57Z</time>
      </trkpt>
      <trkpt lat="44.87865" lon="-0.5917">
        <ele>5.91</ele>
        <time>2025-04-16T09:21:58Z</time>
      </trkpt>
      <trkpt lat="44.87865" lon="-0.59169">
        <ele>5.91</ele>
        <time>2025-04-16T09:22:25Z</time>
      </trkpt>
      <trkpt lat="44.87864" lon="-0.59168">
        <ele>5.91</ele>
        <time>2025-04-16T09:23:01Z</time>
      </trkpt>
      <trkpt lat="44.87863" lon="-0.59172">
        <ele>5.42</ele>
        <time>2025-04-16T09:23:11Z</time>
      </trkpt>
      <trkpt lat="44.87862" lon="-0.59175">
        <ele>5.91</ele>
        <time>2025-04-16T09:23:16Z</time>
      </trkpt>
      <trkpt lat="44.87861" lon="-0.59176">
        <ele>4.94</ele>
        <time>2025-04-16T09:23:17Z</time>
      </trkpt>
      <trkpt lat="44.87846" lon="-0.59192">
        <ele>6.39</ele>
        <time>2025-04-16T09:23:30Z</time>
      </trkpt>
      <trkpt lat="44.87846" lon="-0.59192">
        <ele>6.39</ele>
        <time>2025-04-16T09:23:31Z</time>
      </trkpt>
      <trkpt lat="44.8784" lon="-0.59194">
        <ele>6.39</ele>
        <time>2025-04-16T09:23:47Z</time>
      </trkpt>
      <trkpt lat="44.87839" lon="-0.59195">
        <ele>6.39</ele>
        <time>2025-04-16T09:23:48Z</time>
      </trkpt>
      <trkpt lat="44.87837" lon="-0.59195">
        <ele>6.87</ele>
        <time>2025-04-16T09:23:49Z</time>
      </trkpt>
      <trkpt lat="44.87836" lon="-0.59195">
        <ele>6.87</ele>
        <time>2025-04-16T09:23:50Z</time>
      </trkpt>
      <trkpt lat="44.87835" lon="-0.59194">
        <ele>7.35</ele>
        <time>2025-04-16T09:23:51Z</time>
      </trkpt>
      <trkpt lat="44.87834" lon="-0.59191">
        <ele>6.39</ele>
        <time>2025-04-16T09:23:52Z</time>
      </trkpt>
      <trkpt lat="44.87833" lon="-0.59189">
        <ele>6.39</ele>
        <time>2025-04-16T09:23:53Z</time>
      </trkpt>
      <trkpt lat="44.87832" lon="-0.59186">
        <ele>6.87</ele>
        <time>2025-04-16T09:23:54Z</time>
      </trkpt>
      <trkpt lat="44.87802" lon="-0.59163">
        <ele>6.87</ele>
        <time>2025-04-16T09:24:05Z</time>
      </trkpt>
      <trkpt lat="44.87747" lon="-0.59132">
        <ele>7.35</ele>
        <time>2025-04-16T09:24:22Z</time>
      </trkpt>
      <trkpt lat="44.87697" lon="-0.59109">
        <ele>8.31</ele>
        <time>2025-04-16T09:24:40Z</time>
      </trkpt>
      <trkpt lat="44.87638" lon="-0.59087">
        <ele>6.87</ele>
        <time>2025-04-16T09:24:57Z</time>
      </trkpt>
      <trkpt lat="44.87588" lon="-0.59071">
        <ele>6.87</ele>
        <time>2025-04-16T09:25:12Z</time>
      </trkpt>
      <trkpt lat="44.87577" lon="-0.5906">
        <ele>6.87</ele>
        <time>2025-04-16T09:25:17Z</time>
      </trkpt>
      <trkpt lat="44.87577" lon="-0.59055">
        <ele>7.35</ele>
        <time>2025-04-16T09:25:18Z</time>
      </trkpt>
      <trkpt lat="44.87577" lon="-0.5905">
        <ele>7.35</ele>
        <time>2025-04-16T09:25:19Z</time>
      </trkpt>
      <trkpt lat="44.87584" lon="-0.58926">
        <ele>5.42</ele>
        <time>2025-04-16T09:25:40Z</time>
      </trkpt>
      <trkpt lat="44.87592" lon="-0.58817">
        <ele>3.5</ele>
        <time>2025-04-16T09:25:57Z</time>
      </trkpt>
      <trkpt lat="44.87598" lon="-0.58701">
        <ele>3.02</ele>
        <time>2025-04-16T09:26:15Z</time>
      </trkpt>
      <trkpt lat="44.87599" lon="-0.58612">
        <ele>2.06</ele>
        <time>2025-04-16T09:26:31Z</time>
      </trkpt>
      <trkpt lat="44.876" lon="-0.58612">
        <ele>2.54</ele>
        <time>2025-04-16T09:26:50Z</time>
      </trkpt>
      <trkpt lat="44.87598" lon="-0.58611">
        <ele>2.06</ele>
        <time>2025-04-16T09:27:08Z</time>
      </trkpt>
      <trkpt lat="44.87603" lon="-0.58602">
        <ele>2.06</ele>
        <time>2025-04-16T09:27:22Z</time>
      </trkpt>
      <trkpt lat="44.87604" lon="-0.58601">
        <ele>2.06</ele>
        <time>2025-04-16T09:27:23Z</time>
      </trkpt>
      <trkpt lat="44.87605" lon="-0.58601">
        <ele>3.02</ele>
        <time>2025-04-16T09:27:24Z</time>
      </trkpt>
      <trkpt lat="44.87607" lon="-0.58601">
        <ele>2.54</ele>
        <time>2025-04-16T09:27:25Z</time>
      </trkpt>
      <trkpt lat="44.87608" lon="-0.58602">
        <ele>2.54</ele>
        <time>2025-04-16T09:27:26Z</time>
      </trkpt>
      <trkpt lat="44.8763" lon="-0.58606">
        <ele>1.58</ele>
        <time>2025-04-16T09:27:38Z</time>
      </trkpt>
      <trkpt lat="44.87665" lon="-0.58611">
        <ele>1.1</ele>
        <time>2025-04-16T09:27:51Z</time>
      </trkpt>
      <trkpt lat="44.87666" lon="-0.58608">
        <ele>1.1</ele>
        <time>2025-04-16T09:27:52Z</time>
      </trkpt>
      <trkpt lat="44.87666" lon="-0.58605">
        <ele>1.1</ele>
        <time>2025-04-16T09:27:53Z</time>
      </trkpt>
      <trkpt lat="44.87667" lon="-0.58601">
        <ele>1.1</ele>
        <time>2025-04-16T09:27:54Z</time>
      </trkpt>
      <trkpt lat="44.87668" lon="-0.58598">
        <ele>1.58</ele>
        <time>2025-04-16T09:27:55Z</time>
      </trkpt>
      <trkpt lat="44.87674" lon="-0.58565">
        <ele>1.58</ele>
        <time>2025-04-16T09:28:04Z</time>
      </trkpt>
      <trkpt lat="44.87676" lon="-0.58563">
        <ele>1.1</ele>
        <time>2025-04-16T09:28:05Z</time>
      </trkpt>
      <trkpt lat="44.87677" lon="-0.58562">
        <ele>1.1</ele>
        <time>2025-04-16T09:28:06Z</time>
      </trkpt>
      <trkpt lat="44.8768" lon="-0.58562">
        <ele>1.58</ele>
        <time>2025-04-16T09:28:07Z</time>
      </trkpt>
      <trkpt lat="44.87683" lon="-0.58562">
        <ele>1.58</ele>
        <time>2025-04-16T09:28:08Z</time>
      </trkpt>
      <trkpt lat="44.87722" lon="-0.58577">
        <ele>1.1</ele>
        <time>2025-04-16T09:28:22Z</time>
      </trkpt>
      <trkpt lat="44.87727" lon="-0.5857">
        <ele>0.62</ele>
        <time>2025-04-16T09:28:28Z</time>
      </trkpt>
      <trkpt lat="44.87729" lon="-0.58562">
        <ele>0.62</ele>
        <time>2025-04-16T09:28:33Z</time>
      </trkpt>
      <trkpt lat="44.87729" lon="-0.5856">
        <ele>1.1</ele>
        <time>2025-04-16T09:28:34Z</time>
      </trkpt>
      <trkpt lat="44.87729" lon="-0.58558">
        <ele>0.62</ele>
        <time>2025-04-16T09:28:35Z</time>
      </trkpt>
      <trkpt lat="44.87728" lon="-0.58554">
        <ele>0.62</ele>
        <time>2025-04-16T09:28:39Z</time>
      </trkpt>
      <trkpt lat="44.87728" lon="-0.5855">
        <ele>1.1</ele>
        <time>2025-04-16T09:28:42Z</time>
      </trkpt>
      <trkpt lat="44.87728" lon="-0.58548">
        <ele>0.62</ele>
        <time>2025-04-16T09:28:43Z</time>
      </trkpt>
      <trkpt lat="44.87729" lon="-0.58546">
        <ele>0.62</ele>
        <time>2025-04-16T09:28:44Z</time>
      </trkpt>
      <trkpt lat="44.87729" lon="-0.58545">
        <ele>1.1</ele>
        <time>2025-04-16T09:28:45Z</time>
      </trkpt>
      <trkpt lat="44.87729" lon="-0.58542">
        <ele>0.62</ele>
        <time>2025-04-16T09:28:46Z</time>
      </trkpt>
      <trkpt lat="44.87732" lon="-0.58508">
        <ele>1.1</ele>
        <time>2025-04-16T09:28:58Z</time>
      </trkpt>
      <trkpt lat="44.87734" lon="-0.58504">
        <ele>1.1</ele>
        <time>2025-04-16T09:28:59Z</time>
      </trkpt>
      <trkpt lat="44.87736" lon="-0.58501">
        <ele>1.1</ele>
        <time>2025-04-16T09:29:00Z</time>
      </trkpt>
      <trkpt lat="44.87738" lon="-0.58498">
        <ele>1.1</ele>
        <time>2025-04-16T09:29:01Z</time>
      </trkpt>
      <trkpt lat="44.8774" lon="-0.58495">
        <ele>1.1</ele>
        <time>2025-04-16T09:29:02Z</time>
      </trkpt>
      <trkpt lat="44.87762" lon="-0.58462">
        <ele>1.58</ele>
        <time>2025-04-16T09:29:15Z</time>
      </trkpt>
      <trkpt lat="44.87759" lon="-0.58423">
        <ele>1.1</ele>
        <time>2025-04-16T09:29:29Z</time>
      </trkpt>
      <trkpt lat="44.87736" lon="-0.58392">
        <ele>1.1</ele>
        <time>2025-04-16T09:29:40Z</time>
      </trkpt>
      <trkpt lat="44.8769" lon="-0.58354">
        <ele>1.1</ele>
        <time>2025-04-16T09:29:57Z</time>
      </trkpt>
      <trkpt lat="44.87658" lon="-0.58327">
        <ele>1.1</ele>
        <time>2025-04-16T09:30:11Z</time>
      </trkpt>
      <trkpt lat="44.87632" lon="-0.58317">
        <ele>1.1</ele>
        <time>2025-04-16T09:30:22Z</time>
      </trkpt>
      <trkpt lat="44.87629" lon="-0.58305">
        <ele>1.1</ele>
        <time>2025-04-16T09:30:27Z</time>
      </trkpt>
      <trkpt lat="44.87632" lon="-0.58276">
        <ele>0.62</ele>
        <time>2025-04-16T09:30:34Z</time>
      </trkpt>
      <trkpt lat="44.87617" lon="-0.58265">
        <ele>1.1</ele>
        <time>2025-04-16T09:30:43Z</time>
      </trkpt>
      <trkpt lat="44.87613" lon="-0.58261">
        <ele>0.62</ele>
        <time>2025-04-16T09:30:46Z</time>
      </trkpt>
      <trkpt lat="44.87611" lon="-0.58259">
        <ele>1.1</ele>
        <time>2025-04-16T09:30:47Z</time>
      </trkpt>
      <trkpt lat="44.8761" lon="-0.58256">
        <ele>1.58</ele>
        <time>2025-04-16T09:30:48Z</time>
      </trkpt>
      <trkpt lat="44.8761" lon="-0.58253">
        <ele>0.62</ele>
        <time>2025-04-16T09:30:49Z</time>
      </trkpt>
      <trkpt lat="44.87607" lon="-0.58232">
        <ele>1.1</ele>
        <time>2025-04-16T09:30:56Z</time>
      </trkpt>
      <trkpt lat="44.87609" lon="-0.58229">
        <ele>1.58</ele>
        <time>2025-04-16T09:30:57Z</time>
      </trkpt>
      <trkpt lat="44.87622" lon="-0.58186">
        <ele>1.1</ele>
        <time>2025-04-16T09:31:12Z</time>
      </trkpt>
      <trkpt lat="44.87626" lon="-0.58123">
        <ele>0.62</ele>
        <time>2025-04-16T09:31:27Z</time>
      </trkpt>
      <trkpt lat="44.87628" lon="-0.5808">
        <ele>1.1</ele>
        <time>2025-04-16T09:31:40Z</time>
      </trkpt>
      <trkpt lat="44.87631" lon="-0.58056">
        <ele>1.58</ele>
        <time>2025-04-16T09:31:51Z</time>
      </trkpt>
      <trkpt lat="44.87635" lon="-0.57978">
        <ele>2.06</ele>
        <time>2025-04-16T09:32:06Z</time>
      </trkpt>
      <trkpt lat="44.87635" lon="-0.57962">
        <ele>2.06</ele>
        <time>2025-04-16T09:32:16Z</time>
      </trkpt>
      <trkpt lat="44.87631" lon="-0.57958">
        <ele>1.58</ele>
        <time>2025-04-16T09:32:25Z</time>
      </trkpt>
      <trkpt lat="44.8763" lon="-0.57956">
        <ele>2.06</ele>
        <time>2025-04-16T09:32:26Z</time>
      </trkpt>
      <trkpt lat="44.87628" lon="-0.57956">
        <ele>2.06</ele>
        <time>2025-04-16T09:32:27Z</time>
      </trkpt>
      <trkpt lat="44.87626" lon="-0.57955">
        <ele>1.58</ele>
        <time>2025-04-16T09:32:28Z</time>
      </trkpt>
      <trkpt lat="44.87623" lon="-0.57955">
        <ele>2.06</ele>
        <time>2025-04-16T09:32:29Z</time>
      </trkpt>
      <trkpt lat="44.87581" lon="-0.57949">
        <ele>3.02</ele>
        <time>2025-04-16T09:32:46Z</time>
      </trkpt>
      <trkpt lat="44.87549" lon="-0.57946">
        <ele>3.02</ele>
        <time>2025-04-16T09:33:01Z</time>
      </trkpt>
      <trkpt lat="44.87547" lon="-0.57946">
        <ele>3.02</ele>
        <time>2025-04-16T09:33:04Z</time>
      </trkpt>
      <trkpt lat="44.87548" lon="-0.57953">
        <ele>3.02</ele>
        <time>2025-04-16T09:33:17Z</time>
      </trkpt>
      <trkpt lat="44.87551" lon="-0.57952">
        <ele>3.5</ele>
        <time>2025-04-16T09:33:33Z</time>
      </trkpt>
      <trkpt lat="44.87552" lon="-0.57954">
        <ele>3.02</ele>
        <time>2025-04-16T09:34:10Z</time>
      </trkpt>
      <trkpt lat="44.87548" lon="-0.57953">
        <ele>3.02</ele>
        <time>2025-04-16T09:34:30Z</time>
      </trkpt>
      <trkpt lat="44.87545" lon="-0.57946">
        <ele>2.54</ele>
        <time>2025-04-16T09:34:45Z</time>
      </trkpt>
      <trkpt lat="44.87544" lon="-0.57945">
        <ele>3.02</ele>
        <time>2025-04-16T09:34:46Z</time>
      </trkpt>
      <trkpt lat="44.87542" lon="-0.57944">
        <ele>2.54</ele>
        <time>2025-04-16T09:34:47Z</time>
      </trkpt>
      <trkpt lat="44.8754" lon="-0.57944">
        <ele>3.02</ele>
        <time>2025-04-16T09:34:48Z</time>
      </trkpt>
      <trkpt lat="44.87537" lon="-0.57944">
        <ele>3.5</ele>
        <time>2025-04-16T09:34:49Z</time>
      </trkpt>
      <trkpt lat="44.87497" lon="-0.57941">
        <ele>3.5</ele>
        <time>2025-04-16T09:35:00Z</time>
      </trkpt>
      <trkpt lat="44.87424" lon="-0.57932">
        <ele>2.54</ele>
        <time>2025-04-16T09:35:21Z</time>
      </trkpt>
      <trkpt lat="44.87393" lon="-0.57934">
        <ele>3.02</ele>
        <time>2025-04-16T09:35:35Z</time>
      </trkpt>
      <trkpt lat="44.87391" lon="-0.57932">
        <ele>2.54</ele>
        <time>2025-04-16T09:35:42Z</time>
      </trkpt>
      <trkpt lat="44.8739" lon="-0.57931">
        <ele>2.06</ele>
        <time>2025-04-16T09:35:43Z</time>
      </trkpt>
      <trkpt lat="44.8739" lon="-0.57929">
        <ele>2.06</ele>
        <time>2025-04-16T09:35:44Z</time>
      </trkpt>
      <trkpt lat="44.87392" lon="-0.5789">
        <ele>2.54</ele>
        <time>2025-04-16T09:35:57Z</time>
      </trkpt>
      <trkpt lat="44.87397" lon="-0.57816">
        <ele>3.5</ele>
        <time>2025-04-16T09:36:14Z</time>
      </trkpt>
      <trkpt lat="44.87402" lon="-0.57745">
        <ele>3.5</ele>
        <time>2025-04-16T09:36:30Z</time>
      </trkpt>
      <trkpt lat="44.87408" lon="-0.57687">
        <ele>3.5</ele>
        <time>2025-04-16T09:36:47Z</time>
      </trkpt>
      <trkpt lat="44.8741" lon="-0.5764">
        <ele>3.02</ele>
        <time>2025-04-16T09:37:01Z</time>
      </trkpt>
      <trkpt lat="44.8741" lon="-0.5764">
        <ele>3.02</ele>
        <time>2025-04-16T09:37:33Z</time>
      </trkpt>
      <trkpt lat="44.87411" lon="-0.57639">
        <ele>3.02</ele>
        <time>2025-04-16T09:37:36Z</time>
      </trkpt>
      <trkpt lat="44.87412" lon="-0.57639">
        <ele>3.02</ele>
        <time>2025-04-16T09:37:37Z</time>
      </trkpt>
      <trkpt lat="44.87412" lon="-0.57641">
        <ele>3.5</ele>
        <time>2025-04-16T09:37:38Z</time>
      </trkpt>
      <trkpt lat="44.87412" lon="-0.57642">
        <ele>3.02</ele>
        <time>2025-04-16T09:37:39Z</time>
      </trkpt>
      <trkpt lat="44.87409" lon="-0.57653">
        <ele>3.02</ele>
        <time>2025-04-16T09:37:44Z</time>
      </trkpt>
      <trkpt lat="44.87409" lon="-0.57656">
        <ele>3.02</ele>
        <time>2025-04-16T09:37:45Z</time>
      </trkpt>
      <trkpt lat="44.87409" lon="-0.5766">
        <ele>3.5</ele>
        <time>2025-04-16T09:37:46Z</time>
      </trkpt>
      <trkpt lat="44.87403" lon="-0.57713">
        <ele>3.5</ele>
        <time>2025-04-16T09:38:03Z</time>
      </trkpt>
      <trkpt lat="44.87397" lon="-0.57791">
        <ele>3.5</ele>
        <time>2025-04-16T09:38:19Z</time>
      </trkpt>
      <trkpt lat="44.87394" lon="-0.57867">
        <ele>3.02</ele>
        <time>2025-04-16T09:38:33Z</time>
      </trkpt>
      <trkpt lat="44.87393" lon="-0.57917">
        <ele>3.02</ele>
        <time>2025-04-16T09:38:46Z</time>
      </trkpt>
      <trkpt lat="44.87391" lon="-0.57939">
        <ele>3.5</ele>
        <time>2025-04-16T09:38:59Z</time>
      </trkpt>
      <trkpt lat="44.87381" lon="-0.58001">
        <ele>2.06</ele>
        <time>2025-04-16T09:39:11Z</time>
      </trkpt>
      <trkpt lat="44.87378" lon="-0.58062">
        <ele>0.62</ele>
        <time>2025-04-16T09:39:24Z</time>
      </trkpt>
      <trkpt lat="44.87375" lon="-0.58088">
        <ele>1.1</ele>
        <time>2025-04-16T09:39:30Z</time>
      </trkpt>
      <trkpt lat="44.87377" lon="-0.5809">
        <ele>1.1</ele>
        <time>2025-04-16T09:39:40Z</time>
      </trkpt>
      <trkpt lat="44.87378" lon="-0.58093">
        <ele>1.1</ele>
        <time>2025-04-16T09:40:12Z</time>
      </trkpt>
      <trkpt lat="44.87376" lon="-0.58092">
        <ele>2.06</ele>
        <time>2025-04-16T09:40:38Z</time>
      </trkpt>
      <trkpt lat="44.87376" lon="-0.58093">
        <ele>1.58</ele>
        <time>2025-04-16T09:41:00Z</time>
      </trkpt>
      <trkpt lat="44.87376" lon="-0.58103">
        <ele>2.54</ele>
        <time>2025-04-16T09:41:25Z</time>
      </trkpt>
      <trkpt lat="44.87376" lon="-0.58104">
        <ele>2.54</ele>
        <time>2025-04-16T09:41:26Z</time>
      </trkpt>
      <trkpt lat="44.87375" lon="-0.58105">
        <ele>2.54</ele>
        <time>2025-04-16T09:41:27Z</time>
      </trkpt>
      <trkpt lat="44.87375" lon="-0.58107">
        <ele>2.06</ele>
        <time>2025-04-16T09:41:28Z</time>
      </trkpt>
      <trkpt lat="44.87374" lon="-0.58109">
        <ele>2.54</ele>
        <time>2025-04-16T09:41:29Z</time>
      </trkpt>
      <trkpt lat="44.87374" lon="-0.58111">
        <ele>3.02</ele>
        <time>2025-04-16T09:41:30Z</time>
      </trkpt>
      <trkpt lat="44.87374" lon="-0.58114">
        <ele>2.54</ele>
        <time>2025-04-16T09:41:31Z</time>
      </trkpt>
      <trkpt lat="44.87374" lon="-0.58117">
        <ele>2.54</ele>
        <time>2025-04-16T09:41:32Z</time>
      </trkpt>
      <trkpt lat="44.87373" lon="-0.5812">
        <ele>3.02</ele>
        <time>2025-04-16T09:41:33Z</time>
      </trkpt>
      <trkpt lat="44.87368" lon="-0.58192">
        <ele>3.5</ele>
        <time>2025-04-16T09:41:51Z</time>
      </trkpt>
      <trkpt lat="44.87367" lon="-0.58234">
        <ele>3.5</ele>
        <time>2025-04-16T09:42:05Z</time>
      </trkpt>
      <trkpt lat="44.87366" lon="-0.58237">
        <ele>3.5</ele>
        <time>2025-04-16T09:42:31Z</time>
      </trkpt>
      <trkpt lat="44.87365" lon="-0.58235">
        <ele>4.46</ele>
        <time>2025-04-16T09:43:00Z</time>
      </trkpt>
      <trkpt lat="44.87366" lon="-0.58235">
        <ele>4.46</ele>
        <time>2025-04-16T09:43:28Z</time>
      </trkpt>
      <trkpt lat="44.87368" lon="-0.58239">
        <ele>4.46</ele>
        <time>2025-04-16T09:44:00Z</time>
      </trkpt>
      <trkpt lat="44.87367" lon="-0.58236">
        <ele>3.98</ele>
        <time>2025-04-16T09:44:21Z</time>
      </trkpt>
      <trkpt lat="44.87366" lon="-0.58243">
        <ele>4.94</ele>
        <time>2025-04-16T09:44:57Z</time>
      </trkpt>
      <trkpt lat="44.87368" lon="-0.58237">
        <ele>4.46</ele>
        <time>2025-04-16T09:45:30Z</time>
      </trkpt>
      <trkpt lat="44.87367" lon="-0.58245">
        <ele>4.46</ele>
        <time>2025-04-16T09:45:58Z</time>
      </trkpt>
      <trkpt lat="44.87368" lon="-0.58248">
        <ele>4.94</ele>
        <time>2025-04-16T09:46:15Z</time>
      </trkpt>
      <trkpt lat="44.87368" lon="-0.58249">
        <ele>4.94</ele>
        <time>2025-04-16T09:46:16Z</time>
      </trkpt>
      <trkpt lat="44.87369" lon="-0.58251">
        <ele>5.42</ele>
        <time>2025-04-16T09:46:17Z</time>
      </trkpt>
      <trkpt lat="44.87373" lon="-0.58263">
        <ele>4.46</ele>
        <time>2025-04-16T09:46:28Z</time>
      </trkpt>
      <trkpt lat="44.87374" lon="-0.58266">
        <ele>4.94</ele>
        <time>2025-04-16T09:46:29Z</time>
      </trkpt>
      <trkpt lat="44.87374" lon="-0.58269">
        <ele>4.94</ele>
        <time>2025-04-16T09:46:30Z</time>
      </trkpt>
      <trkpt lat="44.87374" lon="-0.58272">
        <ele>5.42</ele>
        <time>2025-04-16T09:46:31Z</time>
      </trkpt>
      <trkpt lat="44.87374" lon="-0.58275">
        <ele>4.94</ele>
        <time>2025-04-16T09:46:32Z</time>
      </trkpt>
      <trkpt lat="44.87374" lon="-0.58278">
        <ele>4.94</ele>
        <time>2025-04-16T09:46:33Z</time>
      </trkpt>
      <trkpt lat="44.87374" lon="-0.5828">
        <ele>5.42</ele>
        <time>2025-04-16T09:46:34Z</time>
      </trkpt>
      <trkpt lat="44.87372" lon="-0.58282">
        <ele>5.42</ele>
        <time>2025-04-16T09:46:35Z</time>
      </trkpt>
      <trkpt lat="44.87371" lon="-0.58284">
        <ele>4.94</ele>
        <time>2025-04-16T09:46:36Z</time>
      </trkpt>
      <trkpt lat="44.8736" lon="-0.58294">
        <ele>4.94</ele>
        <time>2025-04-16T09:46:42Z</time>
      </trkpt>
      <trkpt lat="44.87358" lon="-0.58297">
        <ele>4.94</ele>
        <time>2025-04-16T09:46:43Z</time>
      </trkpt>
      <trkpt lat="44.87357" lon="-0.58301">
        <ele>4.94</ele>
        <time>2025-04-16T09:46:44Z</time>
      </trkpt>
      <trkpt lat="44.87357" lon="-0.58304">
        <ele>5.42</ele>
        <time>2025-04-16T09:46:45Z</time>
      </trkpt>
      <trkpt lat="44.87351" lon="-0.58397">
        <ele>4.46</ele>
        <time>2025-04-16T09:47:02Z</time>
      </trkpt>
      <trkpt lat="44.87343" lon="-0.58513">
        <ele>5.42</ele>
        <time>2025-04-16T09:47:23Z</time>
      </trkpt>
      <trkpt lat="44.87337" lon="-0.58603">
        <ele>4.94</ele>
        <time>2025-04-16T09:47:40Z</time>
      </trkpt>
      <trkpt lat="44.87336" lon="-0.58645">
        <ele>4.46</ele>
        <time>2025-04-16T09:47:52Z</time>
      </trkpt>
      <trkpt lat="44.87372" lon="-0.58651">
        <ele>4.94</ele>
        <time>2025-04-16T09:48:06Z</time>
      </trkpt>
      <trkpt lat="44.87426" lon="-0.58658">
        <ele>4.94</ele>
        <time>2025-04-16T09:48:24Z</time>
      </trkpt>
      <trkpt lat="44.87462" lon="-0.58665">
        <ele>4.94</ele>
        <time>2025-04-16T09:48:35Z</time>
      </trkpt>
      <trkpt lat="44.87472" lon="-0.58645">
        <ele>4.46</ele>
        <time>2025-04-16T09:48:42Z</time>
      </trkpt>
      <trkpt lat="44.87535" lon="-0.58629">
        <ele>3.98</ele>
        <time>2025-04-16T09:48:59Z</time>
      </trkpt>
      <trkpt lat="44.8758" lon="-0.58614">
        <ele>4.94</ele>
        <time>2025-04-16T09:49:14Z</time>
      </trkpt>
      <trkpt lat="44.87596" lon="-0.58606">
        <ele>5.42</ele>
        <time>2025-04-16T09:49:25Z</time>
      </trkpt>
      <trkpt lat="44.87599" lon="-0.58607">
        <ele>5.42</ele>
        <time>2025-04-16T09:49:55Z</time>
      </trkpt>
      <trkpt lat="44.87598" lon="-0.58605">
        <ele>4.94</ele>
        <time>2025-04-16T09:50:20Z</time>
      </trkpt>
      <trkpt lat="44.87599" lon="-0.58607">
        <ele>4.94</ele>
        <time>2025-04-16T09:50:41Z</time>
      </trkpt>
      <trkpt lat="44.87602" lon="-0.58602">
        <ele>4.94</ele>
        <time>2025-04-16T09:50:48Z</time>
      </trkpt>
      <trkpt lat="44.87603" lon="-0.586">
        <ele>4.94</ele>
        <time>2025-04-16T09:50:49Z</time>
      </trkpt>
      <trkpt lat="44.87605" lon="-0.58599">
        <ele>4.94</ele>
        <time>2025-04-16T09:50:50Z</time>
      </trkpt>
      <trkpt lat="44.87607" lon="-0.58599">
        <ele>5.42</ele>
        <time>2025-04-16T09:50:51Z</time>
      </trkpt>
      <trkpt lat="44.87608" lon="-0.586">
        <ele>5.42</ele>
        <time>2025-04-16T09:50:52Z</time>
      </trkpt>
      <trkpt lat="44.8761" lon="-0.58601">
        <ele>4.94</ele>
        <time>2025-04-16T09:50:53Z</time>
      </trkpt>
      <trkpt lat="44.87612" lon="-0.58602">
        <ele>4.94</ele>
        <time>2025-04-16T09:50:54Z</time>
      </trkpt>
      <trkpt lat="44.87614" lon="-0.58602">
        <ele>5.42</ele>
        <time>2025-04-16T09:50:55Z</time>
      </trkpt>
      <trkpt lat="44.87662" lon="-0.58611">
        <ele>4.46</ele>
        <time>2025-04-16T09:51:11Z</time>
      </trkpt>
      <trkpt lat="44.87665" lon="-0.5861">
        <ele>4.46</ele>
        <time>2025-04-16T09:51:12Z</time>
      </trkpt>
      <trkpt lat="44.87667" lon="-0.58607">
        <ele>4.46</ele>
        <time>2025-04-16T09:51:13Z</time>
      </trkpt>
      <trkpt lat="44.87668" lon="-0.58603">
        <ele>4.94</ele>
        <time>2025-04-16T09:51:14Z</time>
      </trkpt>
      <trkpt lat="44.87669" lon="-0.58598">
        <ele>4.46</ele>
        <time>2025-04-16T09:51:15Z</time>
      </trkpt>
      <trkpt lat="44.8767" lon="-0.58593">
        <ele>4.46</ele>
        <time>2025-04-16T09:51:16Z</time>
      </trkpt>
      <trkpt lat="44.87675" lon="-0.58562">
        <ele>3.98</ele>
        <time>2025-04-16T09:51:22Z</time>
      </trkpt>
      <trkpt lat="44.87677" lon="-0.5856">
        <ele>4.94</ele>
        <time>2025-04-16T09:51:23Z</time>
      </trkpt>
      <trkpt lat="44.8768" lon="-0.58559">
        <ele>4.46</ele>
        <time>2025-04-16T09:51:24Z</time>
      </trkpt>
      <trkpt lat="44.87683" lon="-0.5856">
        <ele>4.94</ele>
        <time>2025-04-16T09:51:25Z</time>
      </trkpt>
      <trkpt lat="44.87687" lon="-0.58561">
        <ele>3.98</ele>
        <time>2025-04-16T09:51:26Z</time>
      </trkpt>
      <trkpt lat="44.87728" lon="-0.58576">
        <ele>4.46</ele>
        <time>2025-04-16T09:51:41Z</time>
      </trkpt>
      <trkpt lat="44.87732" lon="-0.58577">
        <ele>3.98</ele>
        <time>2025-04-16T09:51:49Z</time>
      </trkpt>
      <trkpt lat="44.87733" lon="-0.58577">
        <ele>3.98</ele>
        <time>2025-04-16T09:51:50Z</time>
      </trkpt>
      <trkpt lat="44.87735" lon="-0.58578">
        <ele>3.98</ele>
        <time>2025-04-16T09:51:51Z</time>
      </trkpt>
      <trkpt lat="44.87754" lon="-0.5858">
        <ele>4.46</ele>
        <time>2025-04-16T09:52:03Z</time>
      </trkpt>
      <trkpt lat="44.87784" lon="-0.58583">
        <ele>3.98</ele>
        <time>2025-04-16T09:52:14Z</time>
      </trkpt>
      <trkpt lat="44.87812" lon="-0.58579">
        <ele>3.98</ele>
        <time>2025-04-16T09:52:25Z</time>
      </trkpt>
      <trkpt lat="44.87817" lon="-0.58583">
        <ele>3.98</ele>
        <time>2025-04-16T09:52:31Z</time>
      </trkpt>
      <trkpt lat="44.87821" lon="-0.5858">
        <ele>3.5</ele>
        <time>2025-04-16T09:52:34Z</time>
      </trkpt>
      <trkpt lat="44.87822" lon="-0.58577">
        <ele>3.5</ele>
        <time>2025-04-16T09:52:35Z</time>
      </trkpt>
      <trkpt lat="44.87822" lon="-0.58574">
        <ele>3.5</ele>
        <time>2025-04-16T09:52:36Z</time>
      </trkpt>
      <trkpt lat="44.87822" lon="-0.58571">
        <ele>3.98</ele>
        <time>2025-04-16T09:52:37Z</time>
      </trkpt>
      <trkpt lat="44.87822" lon="-0.58568">
        <ele>3.5</ele>
        <time>2025-04-16T09:52:38Z</time>
      </trkpt>
      <trkpt lat="44.87824" lon="-0.58561">
        <ele>3.98</ele>
        <time>2025-04-16T09:52:40Z</time>
      </trkpt>
      <trkpt lat="44.87826" lon="-0.58559">
        <ele>3.98</ele>
        <time>2025-04-16T09:52:41Z</time>
      </trkpt>
      <trkpt lat="44.87828" lon="-0.58557">
        <ele>3.98</ele>
        <time>2025-04-16T09:52:42Z</time>
      </trkpt>
      <trkpt lat="44.87831" lon="-0.58557">
        <ele>3.98</ele>
        <time>2025-04-16T09:52:43Z</time>
      </trkpt>
      <trkpt lat="44.87834" lon="-0.58557">
        <ele>3.98</ele>
        <time>2025-04-16T09:52:44Z</time>
      </trkpt>
      <trkpt lat="44.87836" lon="-0.58558">
        <ele>3.98</ele>
        <time>2025-04-16T09:52:45Z</time>
      </trkpt>
      <trkpt lat="44.87854" lon="-0.58557">
        <ele>3.5</ele>
        <time>2025-04-16T09:52:58Z</time>
      </trkpt>
      <trkpt lat="44.87856" lon="-0.58555">
        <ele>3.5</ele>
        <time>2025-04-16T09:53:01Z</time>
      </trkpt>
      <trkpt lat="44.87857" lon="-0.58554">
        <ele>3.5</ele>
        <time>2025-04-16T09:53:02Z</time>
      </trkpt>
      <trkpt lat="44.87858" lon="-0.58553">
        <ele>3.5</ele>
        <time>2025-04-16T09:53:03Z</time>
      </trkpt>
      <trkpt lat="44.87858" lon="-0.58551">
        <ele>3.02</ele>
        <time>2025-04-16T09:53:04Z</time>
      </trkpt>
      <trkpt lat="44.87858" lon="-0.58548">
        <ele>3.5</ele>
        <time>2025-04-16T09:53:05Z</time>
      </trkpt>
      <trkpt lat="44.87879" lon="-0.58538">
        <ele>3.98</ele>
        <time>2025-04-16T09:53:16Z</time>
      </trkpt>
      <trkpt lat="44.87914" lon="-0.58543">
        <ele>3.5</ele>
        <time>2025-04-16T09:53:29Z</time>
      </trkpt>
      <trkpt lat="44.87916" lon="-0.58542">
        <ele>4.46</ele>
        <time>2025-04-16T09:53:30Z</time>
      </trkpt>
      <trkpt lat="44.87918" lon="-0.58541">
        <ele>3.98</ele>
        <time>2025-04-16T09:53:31Z</time>
      </trkpt>
      <trkpt lat="44.8792" lon="-0.58542">
        <ele>3.98</ele>
        <time>2025-04-16T09:53:32Z</time>
      </trkpt>
      <trkpt lat="44.87921" lon="-0.58543">
        <ele>3.98</ele>
        <time>2025-04-16T09:53:33Z</time>
      </trkpt>
      <trkpt lat="44.87919" lon="-0.58547">
        <ele>3.98</ele>
        <time>2025-04-16T09:53:35Z</time>
      </trkpt>
      <trkpt lat="44.87917" lon="-0.58547">
        <ele>3.98</ele>
        <time>2025-04-16T09:53:36Z</time>
      </trkpt>
      <trkpt lat="44.87914" lon="-0.58546">
        <ele>3.98</ele>
        <time>2025-04-16T09:53:37Z</time>
      </trkpt>
      <trkpt lat="44.87872" lon="-0.58536">
        <ele>3.98</ele>
        <time>2025-04-16T09:53:50Z</time>
      </trkpt>
      <trkpt lat="44.87859" lon="-0.58535">
        <ele>4.46</ele>
        <time>2025-04-16T09:53:56Z</time>
      </trkpt>
      <trkpt lat="44.87858" lon="-0.58533">
        <ele>4.46</ele>
        <time>2025-04-16T09:53:57Z</time>
      </trkpt>
      <trkpt lat="44.87858" lon="-0.5853">
        <ele>4.46</ele>
        <time>2025-04-16T09:53:58Z</time>
      </trkpt>
      <trkpt lat="44.87858" lon="-0.58471">
        <ele>4.46</ele>
        <time>2025-04-16T09:54:15Z</time>
      </trkpt>
      <trkpt lat="44.87867" lon="-0.58411">
        <ele>4.94</ele>
        <time>2025-04-16T09:54:30Z</time>
      </trkpt>
      <trkpt lat="44.87873" lon="-0.58396">
        <ele>4.46</ele>
        <time>2025-04-16T09:54:36Z</time>
      </trkpt>
      <trkpt lat="44.87874" lon="-0.58396">
        <ele>4.46</ele>
        <time>2025-04-16T09:54:37Z</time>
      </trkpt>
      <trkpt lat="44.8788" lon="-0.5839">
        <ele>4.46</ele>
        <time>2025-04-16T09:54:42Z</time>
      </trkpt>
      <trkpt lat="44.87897" lon="-0.58346">
        <ele>5.42</ele>
        <time>2025-04-16T09:54:58Z</time>
      </trkpt>
      <trkpt lat="44.87902" lon="-0.58346">
        <ele>4.46</ele>
        <time>2025-04-16T09:55:06Z</time>
      </trkpt>
      <trkpt lat="44.87903" lon="-0.58346">
        <ele>4.46</ele>
        <time>2025-04-16T09:55:07Z</time>
      </trkpt>
      <trkpt lat="44.87905" lon="-0.58346">
        <ele>4.46</ele>
        <time>2025-04-16T09:55:08Z</time>
      </trkpt>
      <trkpt lat="44.87907" lon="-0.58346">
        <ele>4.94</ele>
        <time>2025-04-16T09:55:09Z</time>
      </trkpt>
      <trkpt lat="44.87909" lon="-0.58348">
        <ele>4.94</ele>
        <time>2025-04-16T09:55:10Z</time>
      </trkpt>
      <trkpt lat="44.87911" lon="-0.5835">
        <ele>4.94</ele>
        <time>2025-04-16T09:55:11Z</time>
      </trkpt>
      <trkpt lat="44.8794" lon="-0.58375">
        <ele>5.42</ele>
        <time>2025-04-16T09:55:25Z</time>
      </trkpt>
      <trkpt lat="44.87999" lon="-0.58422">
        <ele>4.94</ele>
        <time>2025-04-16T09:55:43Z</time>
      </trkpt>
      <trkpt lat="44.88063" lon="-0.58462">
        <ele>4.46</ele>
        <time>2025-04-16T09:56:00Z</time>
      </trkpt>
      <trkpt lat="44.88101" lon="-0.58483">
        <ele>4.46</ele>
        <time>2025-04-16T09:56:14Z</time>
      </trkpt>
      <trkpt lat="44.88174" lon="-0.58511">
        <ele>4.94</ele>
        <time>2025-04-16T09:56:33Z</time>
      </trkpt>
      <trkpt lat="44.88231" lon="-0.58533">
        <ele>4.94</ele>
        <time>2025-04-16T09:56:47Z</time>
      </trkpt>
      <trkpt lat="44.88296" lon="-0.58564">
        <ele>4.94</ele>
        <time>2025-04-16T09:57:05Z</time>
      </trkpt>
      <trkpt lat="44.88309" lon="-0.58571">
        <ele>5.42</ele>
        <time>2025-04-16T09:57:11Z</time>
      </trkpt>
      <trkpt lat="44.8831" lon="-0.58584">
        <ele>5.91</ele>
        <time>2025-04-16T09:57:15Z</time>
      </trkpt>
      <trkpt lat="44.88287" lon="-0.58675">
        <ele>5.42</ele>
        <time>2025-04-16T09:57:32Z</time>
      </trkpt>
      <trkpt lat="44.88284" lon="-0.58686">
        <ele>4.46</ele>
        <time>2025-04-16T09:57:35Z</time>
      </trkpt>
      <trkpt lat="44.88298" lon="-0.587">
        <ele>4.94</ele>
        <time>2025-04-16T09:57:41Z</time>
      </trkpt>
      <trkpt lat="44.88364" lon="-0.5871">
        <ele>3.98</ele>
        <time>2025-04-16T09:57:59Z</time>
      </trkpt>
      <trkpt lat="44.88409" lon="-0.58716">
        <ele>4.94</ele>
        <time>2025-04-16T09:58:14Z</time>
      </trkpt>
      <trkpt lat="44.88434" lon="-0.58721">
        <ele>5.42</ele>
        <time>2025-04-16T09:58:24Z</time>
      </trkpt>
      <trkpt lat="44.88445" lon="-0.58712">
        <ele>5.91</ele>
        <time>2025-04-16T09:58:34Z</time>
      </trkpt>
      <trkpt lat="44.88447" lon="-0.58709">
        <ele>4.94</ele>
        <time>2025-04-16T09:58:49Z</time>
      </trkpt>
      <trkpt lat="44.88448" lon="-0.58713">
        <ele>5.91</ele>
        <time>2025-04-16T09:59:05Z</time>
      </trkpt>
      <trkpt lat="44.88448" lon="-0.58713">
        <ele>3.5</ele>
        <time>2025-04-16T09:59:09Z</time>
      </trkpt>
      <trkpt lat="44.88448" lon="-0.5871">
        <ele>18.4</ele>
        <time>2025-04-16T10:15:19Z</time>
      </trkpt>
      <trkpt lat="44.88449" lon="-0.58706">
        <ele>19.84</ele>
        <time>2025-04-16T10:15:22Z</time>
      </trkpt>
      <trkpt lat="44.88448" lon="-0.58709">
        <ele>14.08</ele>
        <time>2025-04-16T10:15:31Z</time>
      </trkpt>
      <trkpt lat="44.88447" lon="-0.5871">
        <ele>12.63</ele>
        <time>2025-04-16T10:15:34Z</time>
      </trkpt>
      <trkpt lat="44.88446" lon="-0.5871">
        <ele>10.71</ele>
        <time>2025-04-16T10:15:38Z</time>
      </trkpt>
      <trkpt lat="44.88446" lon="-0.58711">
        <ele>9.27</ele>
        <time>2025-04-16T10:15:41Z</time>
      </trkpt>
      <trkpt lat="44.88447" lon="-0.58713">
        <ele>5.91</ele>
        <time>2025-04-16T10:15:50Z</time>
      </trkpt>
      <trkpt lat="44.88448" lon="-0.58715">
        <ele>3.02</ele>
        <time>2025-04-16T10:16:07Z</time>
      </trkpt>
      <trkpt lat="44.88446" lon="-0.58716">
        <ele>3.5</ele>
        <time>2025-04-16T10:16:34Z</time>
      </trkpt>
      <trkpt lat="44.88447" lon="-0.58714">
        <ele>3.02</ele>
        <time>2025-04-16T10:17:01Z</time>
      </trkpt>
      <trkpt lat="44.88449" lon="-0.58716">
        <ele>3.5</ele>
        <time>2025-04-16T10:17:16Z</time>
      </trkpt>
      <trkpt lat="44.88449" lon="-0.58716">
        <ele>3.02</ele>
        <time>2025-04-16T10:17:38Z</time>
      </trkpt>
      <trkpt lat="44.8845" lon="-0.58716">
        <ele>3.02</ele>
        <time>2025-04-16T10:18:07Z</time>
      </trkpt>
      <trkpt lat="44.8847" lon="-0.5872">
        <ele>3.02</ele>
        <time>2025-04-16T10:18:20Z</time>
      </trkpt>
      <trkpt lat="44.8849" lon="-0.58726">
        <ele>3.5</ele>
        <time>2025-04-16T10:18:35Z</time>
      </trkpt>
      <trkpt lat="44.88493" lon="-0.58726">
        <ele>3.5</ele>
        <time>2025-04-16T10:18:41Z</time>
      </trkpt>
      <trkpt lat="44.88494" lon="-0.58737">
        <ele>2.54</ele>
        <time>2025-04-16T10:18:48Z</time>
      </trkpt>
      <trkpt lat="44.88509" lon="-0.5876">
        <ele>3.02</ele>
        <time>2025-04-16T10:18:57Z</time>
      </trkpt>
      <trkpt lat="44.8851" lon="-0.58761">
        <ele>2.54</ele>
        <time>2025-04-16T10:18:58Z</time>
      </trkpt>
      <trkpt lat="44.88521" lon="-0.58761">
        <ele>3.02</ele>
        <time>2025-04-16T10:19:05Z</time>
      </trkpt>
      <trkpt lat="44.88532" lon="-0.58762">
        <ele>2.06</ele>
        <time>2025-04-16T10:19:12Z</time>
      </trkpt>
      <trkpt lat="44.88532" lon="-0.58775">
        <ele>1.58</ele>
        <time>2025-04-16T10:19:17Z</time>
      </trkpt>
      <trkpt lat="44.88527" lon="-0.58852">
        <ele>2.54</ele>
        <time>2025-04-16T10:19:32Z</time>
      </trkpt>
      <trkpt lat="44.88522" lon="-0.58937">
        <ele>2.54</ele>
        <time>2025-04-16T10:19:46Z</time>
      </trkpt>
      <trkpt lat="44.88517" lon="-0.59033">
        <ele>2.54</ele>
        <time>2025-04-16T10:20:02Z</time>
      </trkpt>
      <trkpt lat="44.88511" lon="-0.59125">
        <ele>3.02</ele>
        <time>2025-04-16T10:20:17Z</time>
      </trkpt>
      <trkpt lat="44.88524" lon="-0.59193">
        <ele>3.5</ele>
        <time>2025-04-16T10:20:30Z</time>
      </trkpt>
      <trkpt lat="44.88545" lon="-0.59225">
        <ele>3.98</ele>
        <time>2025-04-16T10:20:41Z</time>
      </trkpt>
      <trkpt lat="44.88556" lon="-0.59267">
        <ele>3.98</ele>
        <time>2025-04-16T10:20:52Z</time>
      </trkpt>
      <trkpt lat="44.88595" lon="-0.59357">
        <ele>4.46</ele>
        <time>2025-04-16T10:21:13Z</time>
      </trkpt>
      <trkpt lat="44.88609" lon="-0.59388">
        <ele>3.98</ele>
        <time>2025-04-16T10:21:25Z</time>
      </trkpt>
      <trkpt lat="44.88609" lon="-0.5939">
        <ele>3.98</ele>
        <time>2025-04-16T10:21:37Z</time>
      </trkpt>
      <trkpt lat="44.88609" lon="-0.59392">
        <ele>3.98</ele>
        <time>2025-04-16T10:21:38Z</time>
      </trkpt>
      <trkpt lat="44.8861" lon="-0.59393">
        <ele>3.98</ele>
        <time>2025-04-16T10:21:39Z</time>
      </trkpt>
      <trkpt lat="44.88625" lon="-0.59431">
        <ele>4.46</ele>
        <time>2025-04-16T10:21:54Z</time>
      </trkpt>
      <trkpt lat="44.88653" lon="-0.59502">
        <ele>3.5</ele>
        <time>2025-04-16T10:22:10Z</time>
      </trkpt>
      <trkpt lat="44.88673" lon="-0.59544">
        <ele>3.98</ele>
        <time>2025-04-16T10:22:19Z</time>
      </trkpt>
      <trkpt lat="44.88677" lon="-0.59546">
        <ele>3.98</ele>
        <time>2025-04-16T10:22:20Z</time>
      </trkpt>
      <trkpt lat="44.88708" lon="-0.59579">
        <ele>3.98</ele>
        <time>2025-04-16T10:22:31Z</time>
      </trkpt>
      <trkpt lat="44.8871" lon="-0.59599">
        <ele>4.46</ele>
        <time>2025-04-16T10:22:36Z</time>
      </trkpt>
      <trkpt lat="44.88708" lon="-0.59603">
        <ele>3.5</ele>
        <time>2025-04-16T10:22:37Z</time>
      </trkpt>
      <trkpt lat="44.88706" lon="-0.59606">
        <ele>3.98</ele>
        <time>2025-04-16T10:22:38Z</time>
      </trkpt>
      <trkpt lat="44.88704" lon="-0.59609">
        <ele>3.5</ele>
        <time>2025-04-16T10:22:39Z</time>
      </trkpt>
      <trkpt lat="44.88702" lon="-0.59613">
        <ele>3.98</ele>
        <time>2025-04-16T10:22:40Z</time>
      </trkpt>
      <trkpt lat="44.887" lon="-0.59616">
        <ele>3.5</ele>
        <time>2025-04-16T10:22:41Z</time>
      </trkpt>
      <trkpt lat="44.88698" lon="-0.59621">
        <ele>3.5</ele>
        <time>2025-04-16T10:22:42Z</time>
      </trkpt>
      <trkpt lat="44.88698" lon="-0.59626">
        <ele>4.46</ele>
        <time>2025-04-16T10:22:43Z</time>
      </trkpt>
      <trkpt lat="44.88698" lon="-0.59632">
        <ele>3.5</ele>
        <time>2025-04-16T10:22:44Z</time>
      </trkpt>
      <trkpt lat="44.88699" lon="-0.59638">
        <ele>3.98</ele>
        <time>2025-04-16T10:22:45Z</time>
      </trkpt>
      <trkpt lat="44.887" lon="-0.59643">
        <ele>3.5</ele>
        <time>2025-04-16T10:22:46Z</time>
      </trkpt>
      <trkpt lat="44.88702" lon="-0.59649">
        <ele>3.5</ele>
        <time>2025-04-16T10:22:47Z</time>
      </trkpt>
      <trkpt lat="44.88723" lon="-0.59757">
        <ele>3.02</ele>
        <time>2025-04-16T10:23:05Z</time>
      </trkpt>
      <trkpt lat="44.88764" lon="-0.59865">
        <ele>3.02</ele>
        <time>2025-04-16T10:23:25Z</time>
      </trkpt>
      <trkpt lat="44.88773" lon="-0.59878">
        <ele>2.54</ele>
        <time>2025-04-16T10:23:28Z</time>
      </trkpt>
      <trkpt lat="44.88777" lon="-0.59882">
        <ele>2.54</ele>
        <time>2025-04-16T10:23:29Z</time>
      </trkpt>
      <trkpt lat="44.88781" lon="-0.59885">
        <ele>2.54</ele>
        <time>2025-04-16T10:23:30Z</time>
      </trkpt>
      <trkpt lat="44.88785" lon="-0.59887">
        <ele>3.02</ele>
        <time>2025-04-16T10:23:31Z</time>
      </trkpt>
      <trkpt lat="44.88789" lon="-0.5989">
        <ele>2.54</ele>
        <time>2025-04-16T10:23:32Z</time>
      </trkpt>
      <trkpt lat="44.88803" lon="-0.59899">
        <ele>2.06</ele>
        <time>2025-04-16T10:23:35Z</time>
      </trkpt>
      <trkpt lat="44.88823" lon="-0.59918">
        <ele>1.58</ele>
        <time>2025-04-16T10:23:40Z</time>
      </trkpt>
      <trkpt lat="44.88827" lon="-0.5992">
        <ele>1.58</ele>
        <time>2025-04-16T10:23:41Z</time>
      </trkpt>
      <trkpt lat="44.88836" lon="-0.59923">
        <ele>1.58</ele>
        <time>2025-04-16T10:23:43Z</time>
      </trkpt>
      <trkpt lat="44.8884" lon="-0.59926">
        <ele>1.1</ele>
        <time>2025-04-16T10:23:44Z</time>
      </trkpt>
      <trkpt lat="44.88844" lon="-0.59929">
        <ele>1.58</ele>
        <time>2025-04-16T10:23:45Z</time>
      </trkpt>
      <trkpt lat="44.88848" lon="-0.59935">
        <ele>1.1</ele>
        <time>2025-04-16T10:23:46Z</time>
      </trkpt>
      <trkpt lat="44.8885" lon="-0.59941">
        <ele>1.1</ele>
        <time>2025-04-16T10:23:47Z</time>
      </trkpt>
      <trkpt lat="44.88852" lon="-0.59948">
        <ele>1.1</ele>
        <time>2025-04-16T10:23:48Z</time>
      </trkpt>
      <trkpt lat="44.88853" lon="-0.59955">
        <ele>1.1</ele>
        <time>2025-04-16T10:23:49Z</time>
      </trkpt>
      <trkpt lat="44.88854" lon="-0.59963">
        <ele>0.62</ele>
        <time>2025-04-16T10:23:50Z</time>
      </trkpt>
      <trkpt lat="44.88856" lon="-0.59969">
        <ele>0.62</ele>
        <time>2025-04-16T10:23:51Z</time>
      </trkpt>
      <trkpt lat="44.88861" lon="-0.59975">
        <ele>0.14</ele>
        <time>2025-04-16T10:23:52Z</time>
      </trkpt>
      <trkpt lat="44.88866" lon="-0.59981">
        <ele>-0.34</ele>
        <time>2025-04-16T10:23:53Z</time>
      </trkpt>
      <trkpt lat="44.88871" lon="-0.59987">
        <ele>-0.34</ele>
        <time>2025-04-16T10:23:54Z</time>
      </trkpt>
      <trkpt lat="44.88877" lon="-0.59992">
        <ele>-0.82</ele>
        <time>2025-04-16T10:23:55Z</time>
      </trkpt>
      <trkpt lat="44.88883" lon="-0.59996">
        <ele>-1.3</ele>
        <time>2025-04-16T10:23:56Z</time>
      </trkpt>
      <trkpt lat="44.8889" lon="-0.6">
        <ele>-1.3</ele>
        <time>2025-04-16T10:23:57Z</time>
      </trkpt>
      <trkpt lat="44.88964" lon="-0.60047">
        <ele>-1.3</ele>
        <time>2025-04-16T10:24:10Z</time>
      </trkpt>
      <trkpt lat="44.8901" lon="-0.60072">
        <ele>-0.34</ele>
        <time>2025-04-16T10:24:22Z</time>
      </trkpt>
      <trkpt lat="44.89021" lon="-0.60078">
        <ele>0.14</ele>
        <time>2025-04-16T10:24:35Z</time>
      </trkpt>
      <trkpt lat="44.89021" lon="-0.60077">
        <ele>0.14</ele>
        <time>2025-04-16T10:25:16Z</time>
      </trkpt>
      <trkpt lat="44.89028" lon="-0.60082">
        <ele>0.62</ele>
        <time>2025-04-16T10:25:45Z</time>
      </trkpt>
      <trkpt lat="44.89051" lon="-0.60096">
        <ele>1.58</ele>
        <time>2025-04-16T10:25:57Z</time>
      </trkpt>
      <trkpt lat="44.89052" lon="-0.60099">
        <ele>1.1</ele>
        <time>2025-04-16T10:26:13Z</time>
      </trkpt>
      <trkpt lat="44.89052" lon="-0.60101">
        <ele>1.1</ele>
        <time>2025-04-16T10:26:22Z</time>
      </trkpt>
      <trkpt lat="44.89049" lon="-0.6011">
        <ele>1.1</ele>
        <time>2025-04-16T10:26:26Z</time>
      </trkpt>
      <trkpt lat="44.89028" lon="-0.60152">
        <ele>0.62</ele>
        <time>2025-04-16T10:26:39Z</time>
      </trkpt>
      <trkpt lat="44.88986" lon="-0.6022">
        <ele>3.02</ele>
        <time>2025-04-16T10:26:58Z</time>
      </trkpt>
      <trkpt lat="44.88967" lon="-0.60331">
        <ele>2.06</ele>
        <time>2025-04-16T10:27:19Z</time>
      </trkpt>
      <trkpt lat="44.88973" lon="-0.60466">
        <ele>2.06</ele>
        <time>2025-04-16T10:27:40Z</time>
      </trkpt>
      <trkpt lat="44.88979" lon="-0.60585">
        <ele>2.06</ele>
        <time>2025-04-16T10:27:59Z</time>
      </trkpt>
      <trkpt lat="44.88986" lon="-0.60706">
        <ele>1.58</ele>
        <time>2025-04-16T10:28:19Z</time>
      </trkpt>
      <trkpt lat="44.88992" lon="-0.60796">
        <ele>1.1</ele>
        <time>2025-04-16T10:28:36Z</time>
      </trkpt>
      <trkpt lat="44.88995" lon="-0.60858">
        <ele>0.62</ele>
        <time>2025-04-16T10:28:49Z</time>
      </trkpt>
      <trkpt lat="44.89" lon="-0.60927">
        <ele>1.1</ele>
        <time>2025-04-16T10:29:05Z</time>
      </trkpt>
      <trkpt lat="44.89005" lon="-0.61011">
        <ele>1.58</ele>
        <time>2025-04-16T10:29:21Z</time>
      </trkpt>
      <trkpt lat="44.89015" lon="-0.61072">
        <ele>1.58</ele>
        <time>2025-04-16T10:29:32Z</time>
      </trkpt>
      <trkpt lat="44.89018" lon="-0.61073">
        <ele>1.58</ele>
        <time>2025-04-16T10:29:33Z</time>
      </trkpt>
      <trkpt lat="44.89043" lon="-0.61086">
        <ele>2.54</ele>
        <time>2025-04-16T10:29:45Z</time>
      </trkpt>
      <trkpt lat="44.89058" lon="-0.61096">
        <ele>2.54</ele>
        <time>2025-04-16T10:29:53Z</time>
      </trkpt>
      <trkpt lat="44.89072" lon="-0.61146">
        <ele>3.02</ele>
        <time>2025-04-16T10:30:07Z</time>
      </trkpt>
      <trkpt lat="44.89105" lon="-0.61172">
        <ele>2.06</ele>
        <time>2025-04-16T10:30:20Z</time>
      </trkpt>
      <trkpt lat="44.89148" lon="-0.61231">
        <ele>1.58</ele>
        <time>2025-04-16T10:30:35Z</time>
      </trkpt>
      <trkpt lat="44.89188" lon="-0.61325">
        <ele>1.58</ele>
        <time>2025-04-16T10:30:52Z</time>
      </trkpt>
      <trkpt lat="44.892" lon="-0.61425">
        <ele>0.62</ele>
        <time>2025-04-16T10:31:08Z</time>
      </trkpt>
      <trkpt lat="44.89191" lon="-0.61578">
        <ele>0.62</ele>
        <time>2025-04-16T10:31:32Z</time>
      </trkpt>
      <trkpt lat="44.89211" lon="-0.61627">
        <ele>0.62</ele>
        <time>2025-04-16T10:31:43Z</time>
      </trkpt>
      <trkpt lat="44.89224" lon="-0.61641">
        <ele>0.62</ele>
        <time>2025-04-16T10:31:55Z</time>
      </trkpt>
      <trkpt lat="44.89223" lon="-0.61644">
        <ele>0.62</ele>
        <time>2025-04-16T10:32:16Z</time>
      </trkpt>
      <trkpt lat="44.89223" lon="-0.61644">
        <ele>0.62</ele>
        <time>2025-04-16T10:32:47Z</time>
      </trkpt>
      <trkpt lat="44.89222" lon="-0.61643">
        <ele>0.62</ele>
        <time>2025-04-16T10:33:25Z</time>
      </trkpt>
      <trkpt lat="44.89222" lon="-0.61646">
        <ele>0.62</ele>
        <time>2025-04-16T10:33:54Z</time>
      </trkpt>
      <trkpt lat="44.89223" lon="-0.61644">
        <ele>0.62</ele>
        <time>2025-04-16T10:34:20Z</time>
      </trkpt>
      <trkpt lat="44.89225" lon="-0.61641">
        <ele>0.62</ele>
        <time>2025-04-16T10:35:02Z</time>
      </trkpt>
      <trkpt lat="44.89224" lon="-0.61639">
        <ele>-1.3</ele>
        <time>2025-04-16T10:35:42Z</time>
      </trkpt>
      <trkpt lat="44.89224" lon="-0.6164">
        <ele>2.06</ele>
        <time>2025-04-16T10:35:43Z</time>
      </trkpt>
      <trkpt lat="44.89224" lon="-0.6164">
        <ele>-1.79</ele>
        <time>2025-04-16T10:35:44Z</time>
      </trkpt>
      <trkpt lat="44.89224" lon="-0.6164">
        <ele>-0.34</ele>
        <time>2025-04-16T10:35:45Z</time>
      </trkpt>
    </trkseg>
  </trk>
</gpx>